AFR279 RJTT-LFPG
Flight info
| Callsign | AFR279 |
|---|---|
| Flight time | N/A |
| Altitude | 31000 |
| Route | INUBO Y808 PUTER A590 PUGAL/N0499F320 A590 POWAL/N0499F310 DCT HEDMI/N0499F330 R338 MARCC DCT JUJXI DCT 71N160W DCT AGMIF/N0494F350 DCT 79N120W 80N100W 80N080W DCT BUDUM/M084F350 DCT 80N060W 79N050W 77N040W 74N030W 70N020W/M084F370 DCT RATSU/N0494F370 DCT BARKU DCT ELBUS DCT AKOMU DCT VAMEB UL612 WOD UM605 BIBAX |
| Aircraft | B77W/H-SDE1E2E3FGHIJ2J3J4J5M1RWXY/LB1D1 |
Departure
| Time | 2026-05-07 21:21 |
|---|---|
| Airport | Tokyo Haneda International Airport (RJTT) |
Arrival
| Time | N/A |
|---|---|
| Airport | Charles de Gaulle International Airport (LFPG) |
| Time | Latitude | Longitude | Altitude | Speed | Heading |
|---|---|---|---|---|---|
| 2026-05-07 20:46 | 35.54772 | 139.78247 | 20 ft | 0 kts | 52° |
| 2026-05-07 21:10 | 35.54765 | 139.78236 | 29 ft | 3 kts | 55° |
| 2026-05-07 21:11 | 35.54753 | 139.78216 | 29 ft | 3 kts | 52° |
| 2026-05-07 21:11 | 35.54743 | 139.78198 | 29 ft | 3 kts | 67° |
| 2026-05-07 21:11 | 35.54750 | 139.78163 | 27 ft | 3 kts | 159° |
| 2026-05-07 21:12 | 35.54769 | 139.78156 | 42 ft | 3 kts | 165° |
| 2026-05-07 21:12 | 35.54787 | 139.78148 | 27 ft | 2 kts | 152° |
| 2026-05-07 21:12 | 35.54788 | 139.78148 | 27 ft | 0 kts | 151° |
| 2026-05-07 21:15 | 35.54762 | 139.78166 | 26 ft | 8 kts | 150° |
| 2026-05-07 21:16 | 35.54711 | 139.78201 | 29 ft | 8 kts | 150° |
| 2026-05-07 21:16 | 35.54656 | 139.78240 | 29 ft | 10 kts | 150° |
| 2026-05-07 21:16 | 35.54596 | 139.78225 | 29 ft | 10 kts | 233° |
| 2026-05-07 21:16 | 35.54615 | 139.78144 | 28 ft | 13 kts | 321° |
| 2026-05-07 21:17 | 35.54710 | 139.78074 | 21 ft | 19 kts | 330° |
| 2026-05-07 21:17 | 35.54840 | 139.77983 | 28 ft | 22 kts | 330° |
| 2026-05-07 21:17 | 35.54974 | 139.77889 | 28 ft | 22 kts | 330° |
| 2026-05-07 21:17 | 35.55109 | 139.77795 | 28 ft | 22 kts | 330° |
| 2026-05-07 21:18 | 35.55243 | 139.77698 | 28 ft | 22 kts | 330° |
| 2026-05-07 21:18 | 35.55377 | 139.77603 | 28 ft | 22 kts | 330° |
| 2026-05-07 21:18 | 35.55510 | 139.77509 | 28 ft | 19 kts | 330° |
| 2026-05-07 21:18 | 35.55576 | 139.77436 | 28 ft | 12 kts | 289° |
| 2026-05-07 21:19 | 35.55569 | 139.77375 | 28 ft | 0 kts | 244° |
| 2026-05-07 21:19 | 35.55558 | 139.77350 | 28 ft | 8 kts | 240° |
| 2026-05-07 21:19 | 35.55507 | 139.77289 | 29 ft | 11 kts | 202° |
| 2026-05-07 21:20 | 35.55434 | 139.77308 | 29 ft | 11 kts | 151° |
| 2026-05-07 21:20 | 35.55401 | 139.77332 | 29 ft | 0 kts | 148° |
| 2026-05-07 21:20 | 35.55323 | 139.77388 | 29 ft | 47 kts | 150° |
| 2026-05-07 21:21 | 35.54789 | 139.77765 | 30 ft | 129 kts | 150° |
| 2026-05-07 21:21 | 35.53791 | 139.78448 | 66 ft | 198 kts | 153° |
| 2026-05-07 21:21 | 35.52533 | 139.79301 | 848 ft | 208 kts | 152° |
| 2026-05-07 21:21 | 35.51241 | 139.80230 | 1584 ft | 224 kts | 152° |
| 2026-05-07 21:22 | 35.49884 | 139.81224 | 2312 ft | 231 kts | 151° |
| 2026-05-07 21:22 | 35.48414 | 139.82289 | 2358 ft | 260 kts | 153° |
| 2026-05-07 21:22 | 35.46826 | 139.83452 | 2856 ft | 267 kts | 153° |
| 2026-05-07 21:22 | 35.45264 | 139.84732 | 3452 ft | 281 kts | 139° |
| 2026-05-07 21:23 | 35.44212 | 139.86802 | 3874 ft | 294 kts | 107° |
| 2026-05-07 21:23 | 35.44138 | 139.89315 | 4462 ft | 300 kts | 76° |
| 2026-05-07 21:23 | 35.45076 | 139.91573 | 5042 ft | 297 kts | 49° |
| 2026-05-07 21:23 | 35.46377 | 139.93548 | 5591 ft | 300 kts | 52° |
| 2026-05-07 21:24 | 35.47573 | 139.95706 | 6036 ft | 311 kts | 57° |
| 2026-05-07 21:24 | 35.48925 | 139.97775 | 6390 ft | 314 kts | 33° |
| 2026-05-07 21:24 | 35.50878 | 139.98800 | 6896 ft | 303 kts | 2° |
| 2026-05-07 21:24 | 35.52942 | 139.98763 | 7499 ft | 294 kts | 342° |
| 2026-05-07 21:25 | 35.54914 | 139.98138 | 8072 ft | 293 kts | 338° |
| 2026-05-07 21:25 | 35.56890 | 139.97440 | 8652 ft | 297 kts | 338° |
| 2026-05-07 21:25 | 35.58950 | 139.97070 | 9081 ft | 311 kts | 2° |
| 2026-05-07 21:25 | 35.60354 | 139.97524 | 9351 ft | 322 kts | 23° |
| 2026-05-07 21:26 | 35.62661 | 139.99939 | 10026 ft | 334 kts | 53° |
| 2026-05-07 21:26 | 35.63473 | 140.01555 | 10300 ft | 340 kts | 64° |
| 2026-05-07 21:26 | 35.64253 | 140.04364 | 10425 ft | 356 kts | 85° |
| 2026-05-07 21:26 | 35.64202 | 140.07450 | 10580 ft | 368 kts | 100° |
| 2026-05-07 21:27 | 35.63836 | 140.10643 | 10720 ft | 387 kts | 102° |
| 2026-05-07 21:27 | 35.63403 | 140.13981 | 10996 ft | 402 kts | 102° |
| 2026-05-07 21:27 | 35.62958 | 140.17401 | 11443 ft | 410 kts | 102° |
| 2026-05-07 21:27 | 35.62519 | 140.20901 | 12008 ft | 416 kts | 102° |
| 2026-05-07 21:28 | 35.62092 | 140.24432 | 12697 ft | 418 kts | 102° |
| 2026-05-07 21:28 | 35.61677 | 140.27976 | 13370 ft | 421 kts | 102° |
| 2026-05-07 21:28 | 35.61218 | 140.31974 | 13998 ft | 425 kts | 102° |
| 2026-05-07 21:28 | 35.60805 | 140.35608 | 14522 ft | 429 kts | 101° |
| 2026-05-07 21:29 | 35.60391 | 140.39263 | 15047 ft | 434 kts | 101° |
| 2026-05-07 21:29 | 35.59974 | 140.42947 | 15580 ft | 437 kts | 101° |
| 2026-05-07 21:29 | 35.59552 | 140.46666 | 16089 ft | 442 kts | 102° |
| 2026-05-07 21:29 | 35.59125 | 140.50424 | 16609 ft | 446 kts | 102° |
| 2026-05-07 21:30 | 35.58693 | 140.54205 | 17162 ft | 449 kts | 102° |
| 2026-05-07 21:30 | 35.58257 | 140.58013 | 17695 ft | 452 kts | 102° |
| 2026-05-07 21:30 | 35.57817 | 140.61844 | 18226 ft | 455 kts | 102° |
| 2026-05-07 21:30 | 35.57371 | 140.65706 | 18656 ft | 458 kts | 102° |
| 2026-05-07 21:31 | 35.56922 | 140.69589 | 19125 ft | 461 kts | 101° |
| 2026-05-07 21:31 | 35.56469 | 140.73499 | 19588 ft | 464 kts | 101° |
| 2026-05-07 21:31 | 35.56011 | 140.77435 | 20048 ft | 467 kts | 101° |
| 2026-05-07 21:31 | 35.55549 | 140.81388 | 20505 ft | 470 kts | 101° |
| 2026-05-07 21:32 | 35.55083 | 140.85372 | 20946 ft | 473 kts | 101° |
| 2026-05-07 21:32 | 35.54613 | 140.89381 | 21404 ft | 476 kts | 101° |
| 2026-05-07 21:32 | 35.54138 | 140.93413 | 21839 ft | 479 kts | 101° |
| 2026-05-07 21:32 | 35.53659 | 140.97468 | 22244 ft | 482 kts | 101° |
| 2026-05-07 21:33 | 35.53175 | 141.01553 | 22659 ft | 485 kts | 101° |
| 2026-05-07 21:33 | 35.52687 | 141.05667 | 23051 ft | 488 kts | 101° |
| 2026-05-07 21:33 | 35.52290 | 141.09003 | 23376 ft | 491 kts | 101° |
| 2026-05-07 21:33 | 35.51625 | 141.14569 | 23856 ft | 494 kts | 101° |
| 2026-05-07 21:34 | 35.51293 | 141.17339 | 24100 ft | 495 kts | 101° |
| 2026-05-07 21:34 | 35.50627 | 141.22889 | 24605 ft | 497 kts | 101° |
| 2026-05-07 21:34 | 35.50285 | 141.25729 | 24856 ft | 499 kts | 101° |
| 2026-05-07 21:34 | 35.49776 | 141.29939 | 25203 ft | 501 kts | 101° |
| 2026-05-07 21:35 | 35.49095 | 141.35552 | 25636 ft | 504 kts | 101° |
| 2026-05-07 21:35 | 35.48577 | 141.39808 | 25969 ft | 506 kts | 101° |
| 2026-05-07 21:35 | 35.48055 | 141.44084 | 26305 ft | 507 kts | 101° |
| 2026-05-07 21:35 | 35.47531 | 141.48372 | 26640 ft | 509 kts | 101° |
| 2026-05-07 21:36 | 35.47174 | 141.51282 | 26851 ft | 511 kts | 101° |
| 2026-05-07 21:36 | 35.46643 | 141.55596 | 27172 ft | 513 kts | 101° |
| 2026-05-07 21:36 | 35.46108 | 141.59928 | 27471 ft | 515 kts | 101° |
| 2026-05-07 21:36 | 35.45570 | 141.64282 | 27771 ft | 517 kts | 101° |
| 2026-05-07 21:37 | 35.45029 | 141.68647 | 28081 ft | 518 kts | 101° |
| 2026-05-07 21:37 | 35.44488 | 141.73021 | 28369 ft | 520 kts | 101° |
| 2026-05-07 21:37 | 35.44107 | 141.77446 | 28623 ft | 525 kts | 95° |
| 2026-05-07 21:37 | 35.44046 | 141.81937 | 28855 ft | 527 kts | 92° |
| 2026-05-07 21:38 | 35.44050 | 141.86444 | 29082 ft | 530 kts | 92° |
| 2026-05-07 21:38 | 35.44058 | 141.90971 | 29308 ft | 532 kts | 92° |
| 2026-05-07 21:38 | 35.44054 | 141.95446 | 29544 ft | 533 kts | 92° |
| 2026-05-07 21:38 | 35.44036 | 142.00052 | 29859 ft | 532 kts | 93° |
| 2026-05-07 21:39 | 35.44006 | 142.04527 | 30176 ft | 531 kts | 93° |
| 2026-05-07 21:39 | 35.43969 | 142.09111 | 30467 ft | 530 kts | 93° |
| 2026-05-07 21:39 | 35.43928 | 142.13570 | 30731 ft | 529 kts | 93° |
| 2026-05-07 21:39 | 35.43885 | 142.18094 | 30822 ft | 533 kts | 93° |
| 2026-05-07 21:40 | 35.43796 | 142.27182 | 30882 ft | 531 kts | 93° |
| 2026-05-07 21:40 | 35.43706 | 142.36159 | 30874 ft | 523 kts | 93° |
| 2026-05-07 21:41 | 35.43609 | 142.45035 | 30888 ft | 519 kts | 94° |
| 2026-05-07 21:41 | 35.43505 | 142.53890 | 30897 ft | 519 kts | 94° |
| 2026-05-07 21:42 | 35.43395 | 142.62766 | 30900 ft | 522 kts | 94° |
| 2026-05-07 21:42 | 35.43278 | 142.71681 | 30905 ft | 524 kts | 94° |
| 2026-05-07 21:43 | 35.43155 | 142.80633 | 30894 ft | 526 kts | 93° |
| 2026-05-07 21:43 | 35.43026 | 142.89603 | 30904 ft | 527 kts | 94° |
| 2026-05-07 21:44 | 35.42890 | 142.98588 | 30904 ft | 527 kts | 94° |
| 2026-05-07 21:44 | 35.42747 | 143.07566 | 30906 ft | 526 kts | 94° |
| 2026-05-07 21:45 | 35.42599 | 143.16465 | 30908 ft | 525 kts | 94° |
| 2026-05-07 21:45 | 35.42521 | 143.25389 | 30901 ft | 522 kts | 86° |
| 2026-05-07 21:46 | 35.43301 | 143.29741 | 30912 ft | 525 kts | 68° |
| 2026-05-07 21:46 | 35.45053 | 143.33659 | 30923 ft | 525 kts | 53° |
| 2026-05-07 21:46 | 35.47486 | 143.36987 | 30928 ft | 526 kts | 39° |
| 2026-05-07 21:46 | 35.50475 | 143.39560 | 30921 ft | 525 kts | 28° |
| 2026-05-07 21:47 | 35.56890 | 143.43940 | 30905 ft | 529 kts | 27° |
| 2026-05-07 21:47 | 35.63310 | 143.48397 | 30917 ft | 531 kts | 28° |
| 2026-05-07 21:48 | 35.69687 | 143.52988 | 30924 ft | 531 kts | 29° |
| 2026-05-07 21:48 | 35.76044 | 143.57600 | 30914 ft | 531 kts | 29° |
| 2026-05-07 21:49 | 35.82420 | 143.62216 | 30898 ft | 530 kts | 29° |
| 2026-05-07 21:49 | 35.88765 | 143.66836 | 30903 ft | 529 kts | 29° |
| 2026-05-07 21:50 | 35.95101 | 143.71463 | 30898 ft | 529 kts | 29° |
| 2026-05-07 21:50 | 36.01439 | 143.76098 | 30906 ft | 530 kts | 29° |
| 2026-05-07 21:51 | 36.07753 | 143.80723 | 30900 ft | 531 kts | 29° |
| 2026-05-07 21:51 | 36.14121 | 143.85397 | 30893 ft | 532 kts | 29° |
| 2026-05-07 21:52 | 36.20498 | 143.90087 | 30896 ft | 534 kts | 29° |
| 2026-05-07 21:52 | 36.26885 | 143.94787 | 30896 ft | 535 kts | 29° |
| 2026-05-07 21:53 | 36.33299 | 143.99497 | 30893 ft | 535 kts | 29° |
| 2026-05-07 21:53 | 36.39673 | 144.04186 | 30888 ft | 536 kts | 29° |
| 2026-05-07 21:54 | 36.46094 | 144.08923 | 30894 ft | 536 kts | 29° |
| 2026-05-07 21:54 | 36.52510 | 144.13666 | 30898 ft | 536 kts | 29° |
| 2026-05-07 21:55 | 36.58924 | 144.18420 | 30923 ft | 538 kts | 29° |
| 2026-05-07 21:55 | 36.65370 | 144.23197 | 30896 ft | 538 kts | 29° |
| 2026-05-07 21:56 | 36.71789 | 144.27976 | 30884 ft | 537 kts | 29° |
| 2026-05-07 21:56 | 36.78157 | 144.32721 | 30896 ft | 536 kts | 29° |
| 2026-05-07 21:57 | 36.84560 | 144.37511 | 30887 ft | 537 kts | 30° |
| 2026-05-07 21:57 | 36.90958 | 144.42326 | 30881 ft | 537 kts | 30° |
| 2026-05-07 21:58 | 36.97375 | 144.47168 | 30880 ft | 538 kts | 30° |
| 2026-05-07 21:58 | 37.03795 | 144.52018 | 30871 ft | 538 kts | 30° |
| 2026-05-07 21:59 | 37.10221 | 144.56881 | 30879 ft | 540 kts | 30° |
| 2026-05-07 21:59 | 37.16632 | 144.61743 | 30879 ft | 542 kts | 30° |
| 2026-05-07 22:00 | 37.23080 | 144.66643 | 30880 ft | 543 kts | 30° |
| 2026-05-07 22:00 | 37.29553 | 144.71572 | 30881 ft | 544 kts | 30° |
| 2026-05-07 22:01 | 37.36032 | 144.76515 | 30873 ft | 545 kts | 30° |
| 2026-05-07 22:01 | 37.42510 | 144.81468 | 30879 ft | 545 kts | 30° |
| 2026-05-07 22:02 | 37.48990 | 144.86433 | 30876 ft | 545 kts | 30° |
| 2026-05-07 22:02 | 37.55432 | 144.91378 | 30873 ft | 545 kts | 30° |
| 2026-05-07 22:03 | 37.61910 | 144.96361 | 30876 ft | 545 kts | 30° |
| 2026-05-07 22:03 | 37.68379 | 145.01348 | 30876 ft | 545 kts | 30° |
| 2026-05-07 22:04 | 37.74845 | 145.06343 | 30869 ft | 544 kts | 30° |
| 2026-05-07 22:04 | 37.81309 | 145.11346 | 30874 ft | 544 kts | 30° |
| 2026-05-07 22:05 | 37.87734 | 145.16330 | 30875 ft | 545 kts | 30° |
| 2026-05-07 22:05 | 37.94214 | 145.21367 | 30874 ft | 547 kts | 30° |
| 2026-05-07 22:06 | 38.00699 | 145.26418 | 30874 ft | 548 kts | 30° |
| 2026-05-07 22:06 | 38.07193 | 145.31487 | 30873 ft | 548 kts | 30° |
| 2026-05-07 22:07 | 38.13690 | 145.36571 | 30880 ft | 549 kts | 30° |
| 2026-05-07 22:07 | 38.20206 | 145.41678 | 30871 ft | 550 kts | 30° |
| 2026-05-07 22:08 | 38.26716 | 145.46793 | 30869 ft | 550 kts | 30° |
| 2026-05-07 22:08 | 38.33162 | 145.52065 | 30860 ft | 551 kts | 35° |
| 2026-05-07 22:09 | 38.38973 | 145.58454 | 30876 ft | 552 kts | 42° |
| 2026-05-07 22:09 | 38.44530 | 145.65138 | 30866 ft | 553 kts | 43° |
| 2026-05-07 22:10 | 38.50147 | 145.71860 | 30866 ft | 553 kts | 42° |
| 2026-05-07 22:10 | 38.55793 | 145.78558 | 30861 ft | 554 kts | 42° |
| 2026-05-07 22:11 | 38.61452 | 145.85260 | 30865 ft | 554 kts | 42° |
| 2026-05-07 22:11 | 38.67106 | 145.91972 | 30857 ft | 554 kts | 42° |
| 2026-05-07 22:12 | 38.72719 | 145.98657 | 30862 ft | 555 kts | 42° |
| 2026-05-07 22:12 | 38.78366 | 146.05400 | 30862 ft | 556 kts | 42° |
| 2026-05-07 22:13 | 38.84030 | 146.12178 | 30859 ft | 557 kts | 42° |
| 2026-05-07 22:13 | 38.89697 | 146.18975 | 30857 ft | 558 kts | 42° |
| 2026-05-07 22:14 | 38.95367 | 146.25792 | 30855 ft | 558 kts | 42° |
| 2026-05-07 22:14 | 39.01042 | 146.32631 | 30867 ft | 559 kts | 42° |
| 2026-05-07 22:15 | 39.06714 | 146.39484 | 30852 ft | 559 kts | 42° |
| 2026-05-07 22:15 | 39.12292 | 146.46233 | 30848 ft | 559 kts | 42° |
| 2026-05-07 22:16 | 39.17952 | 146.53099 | 30847 ft | 559 kts | 42° |
| 2026-05-07 22:16 | 39.23620 | 146.59993 | 30844 ft | 559 kts | 42° |
| 2026-05-07 22:17 | 39.29274 | 146.66885 | 30838 ft | 559 kts | 42° |
| 2026-05-07 22:17 | 39.34920 | 146.73788 | 30846 ft | 559 kts | 42° |
| 2026-05-07 22:18 | 39.43383 | 146.84156 | 30839 ft | 559 kts | 42° |
| 2026-05-07 22:19 | 39.48981 | 146.91034 | 30841 ft | 558 kts | 42° |
| 2026-05-07 22:19 | 39.54608 | 146.97966 | 30830 ft | 558 kts | 42° |
| 2026-05-07 22:20 | 39.60235 | 147.04915 | 30831 ft | 558 kts | 42° |
| 2026-05-07 22:20 | 39.65853 | 147.11869 | 30842 ft | 558 kts | 42° |
| 2026-05-07 22:21 | 39.71471 | 147.18838 | 30823 ft | 559 kts | 42° |
| 2026-05-07 22:21 | 39.77084 | 147.25818 | 30827 ft | 558 kts | 42° |
| 2026-05-07 22:22 | 39.81746 | 147.31628 | 30825 ft | 558 kts | 42° |
| 2026-05-07 22:22 | 39.87348 | 147.38625 | 30816 ft | 558 kts | 42° |
| 2026-05-07 22:23 | 39.93849 | 147.46766 | 30826 ft | 558 kts | 42° |
| 2026-05-07 22:23 | 39.98535 | 147.52648 | 30828 ft | 558 kts | 42° |
| 2026-05-07 22:24 | 40.04135 | 147.59693 | 30822 ft | 558 kts | 42° |
| 2026-05-07 22:24 | 40.09718 | 147.66733 | 30810 ft | 558 kts | 42° |
| 2026-05-07 22:25 | 40.15292 | 147.73780 | 30820 ft | 557 kts | 42° |
| 2026-05-07 22:25 | 40.20854 | 147.80827 | 30822 ft | 557 kts | 42° |
| 2026-05-07 22:26 | 40.26413 | 147.87887 | 30846 ft | 556 kts | 42° |
| 2026-05-07 22:26 | 40.31965 | 147.94956 | 30823 ft | 557 kts | 43° |
| 2026-05-07 22:27 | 40.37478 | 148.01993 | 30822 ft | 557 kts | 43° |
| 2026-05-07 22:27 | 40.43019 | 148.09082 | 30821 ft | 556 kts | 43° |
| 2026-05-07 22:28 | 40.48556 | 148.16183 | 30822 ft | 556 kts | 43° |
| 2026-05-07 22:28 | 40.54084 | 148.23291 | 30824 ft | 556 kts | 43° |
| 2026-05-07 22:29 | 40.59607 | 148.30408 | 30816 ft | 556 kts | 43° |
| 2026-05-07 22:29 | 40.65132 | 148.37547 | 30823 ft | 557 kts | 43° |
| 2026-05-07 22:30 | 40.70662 | 148.44709 | 30830 ft | 558 kts | 43° |
| 2026-05-07 22:30 | 40.76192 | 148.51887 | 30825 ft | 559 kts | 43° |
| 2026-05-07 22:31 | 40.81734 | 148.59101 | 30832 ft | 560 kts | 43° |
| 2026-05-07 22:31 | 40.87283 | 148.66342 | 30831 ft | 561 kts | 43° |
| 2026-05-07 22:32 | 40.92835 | 148.73611 | 30831 ft | 562 kts | 43° |
| 2026-05-07 22:32 | 40.98394 | 148.80895 | 30827 ft | 562 kts | 43° |
| 2026-05-07 22:33 | 41.03945 | 148.88193 | 30829 ft | 562 kts | 43° |
| 2026-05-07 22:33 | 41.09489 | 148.95500 | 30830 ft | 562 kts | 43° |
| 2026-05-07 22:34 | 41.15024 | 149.02819 | 30830 ft | 561 kts | 44° |
| 2026-05-07 22:34 | 41.20549 | 149.10148 | 30856 ft | 561 kts | 44° |
| 2026-05-07 22:35 | 41.26065 | 149.17488 | 30835 ft | 562 kts | 43° |
| 2026-05-07 22:35 | 41.31546 | 149.24794 | 30831 ft | 562 kts | 43° |
| 2026-05-07 22:36 | 41.37064 | 149.32168 | 30828 ft | 562 kts | 43° |
| 2026-05-07 22:36 | 41.42582 | 149.39562 | 30837 ft | 563 kts | 43° |
| 2026-05-07 22:37 | 41.48102 | 149.46980 | 30834 ft | 564 kts | 43° |
| 2026-05-07 22:37 | 41.53622 | 149.54415 | 30852 ft | 564 kts | 43° |
| 2026-05-07 22:38 | 41.59148 | 149.61879 | 30845 ft | 565 kts | 43° |
| 2026-05-07 22:38 | 41.64667 | 149.69352 | 30842 ft | 565 kts | 43° |
| 2026-05-07 22:39 | 41.70184 | 149.76844 | 30818 ft | 566 kts | 43° |
| 2026-05-07 22:39 | 41.75715 | 149.84350 | 30800 ft | 566 kts | 43° |
| 2026-05-07 22:40 | 41.81244 | 149.91863 | 30785 ft | 567 kts | 43° |
| 2026-05-07 22:40 | 41.86772 | 149.99411 | 30788 ft | 567 kts | 43° |
| 2026-05-07 22:41 | 41.92270 | 150.06980 | 30778 ft | 566 kts | 43° |
| 2026-05-07 22:41 | 41.97727 | 150.14573 | 30769 ft | 565 kts | 43° |
| 2026-05-07 22:42 | 42.03145 | 150.22219 | 30736 ft | 564 kts | 44° |
| 2026-05-07 22:42 | 42.08516 | 150.29926 | 30706 ft | 564 kts | 44° |
| 2026-05-07 22:43 | 42.13837 | 150.37697 | 30678 ft | 565 kts | 45° |
| 2026-05-07 22:43 | 42.19115 | 150.45560 | 30667 ft | 566 kts | 45° |
| 2026-05-07 22:44 | 42.24346 | 150.53484 | 30660 ft | 565 kts | 45° |
| 2026-05-07 22:44 | 42.29534 | 150.61439 | 30654 ft | 564 kts | 45° |
| 2026-05-07 22:45 | 42.34674 | 150.69453 | 30633 ft | 564 kts | 46° |
| 2026-05-07 22:45 | 42.39753 | 150.77545 | 30614 ft | 564 kts | 47° |
| 2026-05-07 22:46 | 42.44765 | 150.85718 | 30608 ft | 565 kts | 47° |
| 2026-05-07 22:46 | 42.49714 | 150.94006 | 30726 ft | 565 kts | 48° |
| 2026-05-07 22:47 | 42.55178 | 151.01443 | 30867 ft | 551 kts | 27° |
| 2026-05-07 22:47 | 42.61653 | 151.06992 | 30852 ft | 556 kts | 31° |
| 2026-05-07 22:48 | 42.67582 | 151.13780 | 30858 ft | 567 kts | 42° |
| 2026-05-07 22:48 | 42.72979 | 151.21616 | 30862 ft | 568 kts | 44° |
| 2026-05-07 22:49 | 42.78315 | 151.29532 | 30849 ft | 566 kts | 43° |
| 2026-05-07 22:49 | 42.83649 | 151.37374 | 30856 ft | 563 kts | 43° |
| 2026-05-07 22:50 | 42.88985 | 151.45159 | 30862 ft | 561 kts | 43° |
| 2026-05-07 22:50 | 42.94308 | 151.52925 | 30862 ft | 559 kts | 43° |
| 2026-05-07 22:51 | 42.99612 | 151.60691 | 30864 ft | 559 kts | 43° |
| 2026-05-07 22:51 | 43.04908 | 151.68474 | 30870 ft | 559 kts | 43° |
| 2026-05-07 22:52 | 43.10204 | 151.76280 | 30881 ft | 561 kts | 43° |
| 2026-05-07 22:52 | 43.15512 | 151.84125 | 30868 ft | 562 kts | 43° |
| 2026-05-07 22:53 | 43.20822 | 151.91996 | 30885 ft | 563 kts | 43° |
| 2026-05-07 22:53 | 43.26135 | 151.99894 | 30881 ft | 563 kts | 43° |
| 2026-05-07 22:54 | 43.31437 | 152.07797 | 30882 ft | 563 kts | 43° |
| 2026-05-07 22:54 | 43.36737 | 152.15717 | 30876 ft | 563 kts | 43° |
| 2026-05-07 22:55 | 43.42023 | 152.23640 | 30875 ft | 562 kts | 43° |
| 2026-05-07 22:55 | 43.47295 | 152.31563 | 30888 ft | 561 kts | 43° |
| 2026-05-07 22:56 | 43.52562 | 152.39499 | 30914 ft | 561 kts | 43° |
| 2026-05-07 22:56 | 43.57823 | 152.47450 | 30887 ft | 561 kts | 43° |
| 2026-05-07 22:57 | 43.63074 | 152.55408 | 30883 ft | 561 kts | 43° |
| 2026-05-07 22:57 | 43.68320 | 152.63379 | 30897 ft | 561 kts | 43° |
| 2026-05-07 22:58 | 43.73564 | 152.71370 | 30902 ft | 561 kts | 43° |
| 2026-05-07 22:58 | 43.78773 | 152.79330 | 30894 ft | 562 kts | 43° |
| 2026-05-07 22:59 | 43.84014 | 152.87363 | 30904 ft | 562 kts | 43° |
| 2026-05-07 22:59 | 43.89243 | 152.95400 | 30899 ft | 561 kts | 43° |
| 2026-05-07 23:00 | 43.94471 | 153.03457 | 30892 ft | 561 kts | 43° |
| 2026-05-07 23:00 | 43.99686 | 153.11517 | 30900 ft | 561 kts | 43° |
| 2026-05-07 23:01 | 44.04897 | 153.19595 | 30910 ft | 561 kts | 43° |
| 2026-05-07 23:01 | 44.10102 | 153.27686 | 30907 ft | 562 kts | 43° |
| 2026-05-07 23:02 | 44.15318 | 153.35816 | 30895 ft | 563 kts | 44° |
| 2026-05-07 23:02 | 44.20524 | 153.43957 | 30911 ft | 563 kts | 43° |
| 2026-05-07 23:03 | 44.25736 | 153.52127 | 30904 ft | 564 kts | 44° |
| 2026-05-07 23:03 | 44.30942 | 153.60315 | 30912 ft | 564 kts | 44° |
| 2026-05-07 23:04 | 44.36147 | 153.68523 | 30913 ft | 564 kts | 44° |
| 2026-05-07 23:04 | 44.41341 | 153.76739 | 30909 ft | 564 kts | 44° |
| 2026-05-07 23:05 | 44.46532 | 153.84972 | 30911 ft | 564 kts | 44° |
| 2026-05-07 23:05 | 44.51719 | 153.93224 | 30913 ft | 564 kts | 44° |
| 2026-05-07 23:06 | 44.56906 | 154.01500 | 30920 ft | 566 kts | 44° |
| 2026-05-07 23:06 | 44.62090 | 154.09795 | 30922 ft | 566 kts | 44° |
| 2026-05-07 23:07 | 44.67242 | 154.18064 | 30915 ft | 566 kts | 44° |
| 2026-05-07 23:07 | 44.72458 | 154.26460 | 30924 ft | 567 kts | 44° |
| 2026-05-07 23:08 | 44.77606 | 154.34773 | 30913 ft | 567 kts | 44° |
| 2026-05-07 23:08 | 44.82782 | 154.43153 | 30921 ft | 567 kts | 44° |
| 2026-05-07 23:09 | 44.87951 | 154.51549 | 30960 ft | 567 kts | 44° |
| 2026-05-07 23:09 | 44.93129 | 154.59983 | 30923 ft | 569 kts | 44° |
| 2026-05-07 23:10 | 44.98302 | 154.68434 | 30923 ft | 569 kts | 44° |
| 2026-05-07 23:10 | 45.02639 | 154.75540 | 30932 ft | 570 kts | 44° |
| 2026-05-07 23:11 | 45.07812 | 154.84040 | 30927 ft | 570 kts | 44° |
| 2026-05-07 23:11 | 45.12979 | 154.92556 | 30923 ft | 570 kts | 44° |
| 2026-05-07 23:12 | 45.18145 | 155.01096 | 30933 ft | 570 kts | 43° |
| 2026-05-07 23:12 | 45.23301 | 155.09646 | 30945 ft | 571 kts | 43° |
| 2026-05-07 23:13 | 45.28459 | 155.18221 | 30928 ft | 571 kts | 43° |
| 2026-05-07 23:13 | 45.33574 | 155.26754 | 30924 ft | 572 kts | 44° |
| 2026-05-07 23:14 | 45.38725 | 155.35374 | 30926 ft | 572 kts | 43° |
| 2026-05-07 23:14 | 45.43868 | 155.44006 | 30920 ft | 572 kts | 43° |
| 2026-05-07 23:15 | 45.49006 | 155.52657 | 30921 ft | 572 kts | 43° |
| 2026-05-07 23:15 | 45.54137 | 155.61325 | 30931 ft | 572 kts | 43° |
| 2026-05-07 23:16 | 45.59263 | 155.70009 | 30929 ft | 573 kts | 43° |
| 2026-05-07 23:16 | 45.64389 | 155.78717 | 30925 ft | 573 kts | 43° |
| 2026-05-07 23:17 | 45.69510 | 155.87447 | 30928 ft | 573 kts | 43° |
| 2026-05-07 23:17 | 45.74627 | 155.96200 | 30918 ft | 573 kts | 43° |
| 2026-05-07 23:18 | 45.79739 | 156.04970 | 30922 ft | 573 kts | 43° |
| 2026-05-07 23:18 | 45.84838 | 156.13744 | 30919 ft | 573 kts | 43° |
| 2026-05-07 23:19 | 45.89934 | 156.22542 | 30916 ft | 573 kts | 43° |
| 2026-05-07 23:19 | 45.95026 | 156.31360 | 30926 ft | 574 kts | 43° |
| 2026-05-07 23:20 | 46.00116 | 156.40201 | 30939 ft | 574 kts | 43° |
| 2026-05-07 23:20 | 46.05204 | 156.49069 | 30923 ft | 575 kts | 43° |
| 2026-05-07 23:21 | 46.10285 | 156.57953 | 30913 ft | 575 kts | 43° |
| 2026-05-07 23:21 | 46.15364 | 156.66862 | 30914 ft | 575 kts | 43° |
| 2026-05-07 23:22 | 46.20434 | 156.75784 | 30918 ft | 575 kts | 43° |
| 2026-05-07 23:22 | 46.25493 | 156.84715 | 30914 ft | 574 kts | 43° |
| 2026-05-07 23:23 | 46.30514 | 156.93607 | 30915 ft | 575 kts | 43° |
| 2026-05-07 23:23 | 46.35564 | 157.02578 | 30926 ft | 575 kts | 43° |
| 2026-05-07 23:24 | 46.40608 | 157.11568 | 30910 ft | 575 kts | 43° |
| 2026-05-07 23:24 | 46.45651 | 157.20587 | 30909 ft | 575 kts | 43° |
| 2026-05-07 23:25 | 46.50673 | 157.29599 | 30914 ft | 575 kts | 43° |
| 2026-05-07 23:25 | 46.55694 | 157.38636 | 30909 ft | 574 kts | 43° |
| 2026-05-07 23:26 | 46.60701 | 157.47678 | 30958 ft | 574 kts | 43° |
| 2026-05-07 23:26 | 46.65706 | 157.56744 | 30909 ft | 575 kts | 43° |
| 2026-05-07 23:27 | 46.73214 | 157.70403 | 30906 ft | 576 kts | 43° |
| 2026-05-07 23:27 | 46.78212 | 157.79533 | 30906 ft | 576 kts | 43° |
| 2026-05-07 23:28 | 46.83202 | 157.88681 | 30915 ft | 576 kts | 43° |
| 2026-05-07 23:28 | 46.88181 | 157.97836 | 30903 ft | 576 kts | 43° |
| 2026-05-07 23:29 | 46.93117 | 158.06944 | 30901 ft | 575 kts | 43° |
| 2026-05-07 23:29 | 46.98079 | 158.16130 | 30923 ft | 575 kts | 43° |
| 2026-05-07 23:30 | 47.03039 | 158.25340 | 30911 ft | 576 kts | 43° |
| 2026-05-07 23:30 | 47.07995 | 158.34576 | 30901 ft | 576 kts | 44° |
| 2026-05-07 23:31 | 47.12943 | 158.43829 | 30899 ft | 576 kts | 44° |
| 2026-05-07 23:31 | 47.17884 | 158.53100 | 30910 ft | 576 kts | 44° |
| 2026-05-07 23:32 | 47.22817 | 158.62387 | 30895 ft | 576 kts | 44° |
| 2026-05-07 23:32 | 47.27737 | 158.71681 | 30893 ft | 575 kts | 44° |
| 2026-05-07 23:33 | 47.32648 | 158.80988 | 30901 ft | 575 kts | 44° |
| 2026-05-07 23:33 | 47.37546 | 158.90303 | 30896 ft | 575 kts | 44° |
| 2026-05-07 23:34 | 47.42437 | 158.99636 | 30890 ft | 574 kts | 44° |
| 2026-05-07 23:34 | 47.47313 | 159.08974 | 30890 ft | 574 kts | 44° |
| 2026-05-07 23:35 | 47.52180 | 159.18325 | 30887 ft | 574 kts | 44° |
| 2026-05-07 23:35 | 47.57011 | 159.27636 | 30886 ft | 574 kts | 44° |
| 2026-05-07 23:36 | 47.61895 | 159.37085 | 30888 ft | 574 kts | 44° |
| 2026-05-07 23:36 | 47.66714 | 159.46438 | 30942 ft | 575 kts | 44° |
| 2026-05-07 23:37 | 47.71573 | 159.55901 | 30888 ft | 577 kts | 44° |
| 2026-05-07 23:37 | 47.76430 | 159.65395 | 30884 ft | 577 kts | 44° |
| 2026-05-07 23:38 | 47.81281 | 159.74912 | 30876 ft | 577 kts | 44° |
| 2026-05-07 23:38 | 47.86122 | 159.84442 | 30879 ft | 577 kts | 44° |
| 2026-05-07 23:39 | 47.90957 | 159.93993 | 30871 ft | 577 kts | 44° |
| 2026-05-07 23:39 | 47.95776 | 160.03546 | 30871 ft | 576 kts | 45° |
| 2026-05-07 23:40 | 48.00584 | 160.13109 | 30946 ft | 576 kts | 44° |
| 2026-05-07 23:40 | 48.05390 | 160.22700 | 30878 ft | 577 kts | 45° |
| 2026-05-07 23:41 | 48.10190 | 160.32316 | 30869 ft | 577 kts | 45° |
| 2026-05-07 23:41 | 48.14982 | 160.41952 | 30865 ft | 577 kts | 45° |
| 2026-05-07 23:42 | 48.19768 | 160.51608 | 30874 ft | 577 kts | 45° |
| 2026-05-07 23:42 | 48.24545 | 160.61282 | 30864 ft | 577 kts | 45° |
| 2026-05-07 23:43 | 48.29306 | 160.70990 | 30859 ft | 578 kts | 46° |
| 2026-05-07 23:43 | 48.33892 | 160.80845 | 30879 ft | 580 kts | 47° |
| 2026-05-07 23:44 | 48.38473 | 160.90940 | 30868 ft | 582 kts | 47° |
| 2026-05-07 23:44 | 48.43014 | 161.00926 | 30866 ft | 582 kts | 47° |
| 2026-05-07 23:45 | 48.47604 | 161.10985 | 30860 ft | 583 kts | 47° |
| 2026-05-07 23:45 | 48.52195 | 161.21063 | 30860 ft | 583 kts | 47° |
| 2026-05-07 23:46 | 48.56777 | 161.31161 | 30855 ft | 583 kts | 47° |
| 2026-05-07 23:46 | 48.61352 | 161.41291 | 30857 ft | 583 kts | 47° |
| 2026-05-07 23:47 | 48.65911 | 161.51425 | 30865 ft | 583 kts | 47° |
| 2026-05-07 23:47 | 48.70466 | 161.61589 | 30852 ft | 583 kts | 47° |
| 2026-05-07 23:48 | 48.75011 | 161.71766 | 30855 ft | 584 kts | 47° |
| 2026-05-07 23:48 | 48.79556 | 161.81977 | 30875 ft | 584 kts | 47° |
| 2026-05-07 23:49 | 48.84093 | 161.92213 | 30863 ft | 585 kts | 47° |
| 2026-05-07 23:49 | 48.88625 | 162.02479 | 30854 ft | 585 kts | 47° |
| 2026-05-07 23:50 | 48.93144 | 162.12757 | 30855 ft | 585 kts | 47° |
| 2026-05-07 23:50 | 48.97656 | 162.23055 | 30864 ft | 585 kts | 47° |
| 2026-05-07 23:51 | 49.02157 | 162.33368 | 30852 ft | 584 kts | 47° |
| 2026-05-07 23:51 | 49.06647 | 162.43696 | 30850 ft | 584 kts | 47° |
| 2026-05-07 23:52 | 49.11123 | 162.54035 | 30855 ft | 585 kts | 47° |
| 2026-05-07 23:52 | 49.15597 | 162.64399 | 30855 ft | 585 kts | 47° |
| 2026-05-07 23:53 | 49.20064 | 162.74790 | 30857 ft | 585 kts | 47° |
| 2026-05-07 23:53 | 49.24518 | 162.85196 | 30858 ft | 585 kts | 47° |
| 2026-05-07 23:54 | 49.28968 | 162.95632 | 30866 ft | 586 kts | 47° |
| 2026-05-07 23:54 | 49.33414 | 163.06098 | 30860 ft | 586 kts | 47° |
| 2026-05-07 23:55 | 49.37853 | 163.16591 | 30863 ft | 586 kts | 47° |
| 2026-05-07 23:55 | 49.42282 | 163.27102 | 30869 ft | 586 kts | 47° |
| 2026-05-07 23:56 | 49.45959 | 163.35861 | 30884 ft | 587 kts | 47° |
| 2026-05-07 23:56 | 49.51126 | 163.48212 | 30858 ft | 587 kts | 47° |
| 2026-05-07 23:57 | 49.54790 | 163.57008 | 30859 ft | 587 kts | 47° |
| 2026-05-07 23:57 | 49.59192 | 163.67616 | 30887 ft | 587 kts | 47° |
| 2026-05-07 23:58 | 49.63578 | 163.78227 | 30858 ft | 587 kts | 47° |
| 2026-05-07 23:58 | 49.67949 | 163.88848 | 30855 ft | 586 kts | 47° |
| 2026-05-07 23:59 | 49.72311 | 163.99484 | 30858 ft | 585 kts | 47° |
| 2026-05-07 23:59 | 49.76656 | 164.10122 | 30862 ft | 585 kts | 48° |
| 2026-05-08 00:00 | 49.80966 | 164.20714 | 30916 ft | 585 kts | 48° |
| 2026-05-08 00:00 | 49.85294 | 164.31397 | 30859 ft | 585 kts | 48° |
| 2026-05-08 00:01 | 49.89604 | 164.42086 | 30870 ft | 584 kts | 49° |
| 2026-05-08 00:01 | 49.93893 | 164.52761 | 30850 ft | 582 kts | 49° |
| 2026-05-08 00:02 | 49.98163 | 164.63430 | 30853 ft | 581 kts | 49° |
| 2026-05-08 00:02 | 50.02349 | 164.73929 | 30856 ft | 580 kts | 49° |
| 2026-05-08 00:03 | 50.06595 | 164.84624 | 30868 ft | 580 kts | 49° |
| 2026-05-08 00:03 | 50.10827 | 164.95327 | 30857 ft | 580 kts | 49° |
| 2026-05-08 00:04 | 50.15088 | 165.05980 | 30902 ft | 576 kts | 46° |
| 2026-05-08 00:04 | 50.20053 | 165.15543 | 30864 ft | 560 kts | 36° |
| 2026-05-08 00:05 | 50.22806 | 165.19754 | 30863 ft | 549 kts | 30° |
| 2026-05-08 00:05 | 50.25691 | 165.23639 | 30858 ft | 546 kts | 29° |
| 2026-05-08 00:05 | 50.31477 | 165.31322 | 30862 ft | 546 kts | 29° |
| 2026-05-08 00:06 | 50.37247 | 165.39056 | 30858 ft | 547 kts | 29° |
| 2026-05-08 00:06 | 50.43012 | 165.46893 | 30865 ft | 549 kts | 30° |
| 2026-05-08 00:07 | 50.48767 | 165.54774 | 30869 ft | 550 kts | 31° |
| 2026-05-08 00:07 | 50.54522 | 165.62690 | 30858 ft | 549 kts | 31° |
| 2026-05-08 00:08 | 50.60217 | 165.70542 | 30850 ft | 548 kts | 31° |
| 2026-05-08 00:08 | 50.65938 | 165.78448 | 30852 ft | 547 kts | 31° |
| 2026-05-08 00:09 | 50.71652 | 165.86369 | 30862 ft | 546 kts | 31° |
| 2026-05-08 00:09 | 50.77353 | 165.94300 | 30857 ft | 546 kts | 32° |
| 2026-05-08 00:10 | 50.83055 | 166.02260 | 30849 ft | 547 kts | 32° |
| 2026-05-08 00:10 | 50.88750 | 166.10238 | 30849 ft | 547 kts | 32° |
| 2026-05-08 00:11 | 50.94438 | 166.18233 | 30849 ft | 547 kts | 32° |
| 2026-05-08 00:11 | 51.00128 | 166.26257 | 30905 ft | 547 kts | 32° |
| 2026-05-08 00:12 | 51.05818 | 166.34308 | 30849 ft | 548 kts | 33° |
| 2026-05-08 00:12 | 51.11493 | 166.42372 | 30839 ft | 546 kts | 33° |
| 2026-05-08 00:13 | 51.17153 | 166.50441 | 30839 ft | 545 kts | 33° |
| 2026-05-08 00:13 | 51.22793 | 166.58504 | 30846 ft | 544 kts | 33° |
| 2026-05-08 00:14 | 51.28423 | 166.66581 | 30899 ft | 544 kts | 33° |
| 2026-05-08 00:14 | 51.34045 | 166.74672 | 30838 ft | 543 kts | 34° |
| 2026-05-08 00:15 | 51.39643 | 166.82764 | 30841 ft | 541 kts | 34° |
| 2026-05-08 00:15 | 51.45186 | 166.90802 | 30843 ft | 540 kts | 35° |
| 2026-05-08 00:16 | 51.50748 | 166.98891 | 30828 ft | 539 kts | 35° |
| 2026-05-08 00:16 | 51.56299 | 167.06992 | 30834 ft | 539 kts | 35° |
| 2026-05-08 00:17 | 51.61848 | 167.15114 | 30840 ft | 539 kts | 36° |
| 2026-05-08 00:17 | 51.67409 | 167.23292 | 30832 ft | 538 kts | 36° |
| 2026-05-08 00:18 | 51.72930 | 167.31438 | 30846 ft | 537 kts | 36° |
| 2026-05-08 00:18 | 51.78431 | 167.39577 | 30833 ft | 536 kts | 37° |
| 2026-05-08 00:19 | 51.83877 | 167.47667 | 30829 ft | 534 kts | 37° |
| 2026-05-08 00:19 | 51.89335 | 167.55800 | 30840 ft | 533 kts | 37° |
| 2026-05-08 00:20 | 51.94779 | 167.63942 | 30827 ft | 532 kts | 37° |
| 2026-05-08 00:20 | 52.00203 | 167.72081 | 30834 ft | 530 kts | 38° |
| 2026-05-08 00:21 | 52.05606 | 167.80217 | 30824 ft | 529 kts | 38° |
| 2026-05-08 00:21 | 52.10999 | 167.88366 | 30827 ft | 529 kts | 38° |
| 2026-05-08 00:22 | 52.16391 | 167.96539 | 30855 ft | 529 kts | 38° |
| 2026-05-08 00:22 | 52.21764 | 168.04716 | 30831 ft | 528 kts | 38° |
| 2026-05-08 00:23 | 52.27093 | 168.12852 | 30831 ft | 527 kts | 39° |
| 2026-05-08 00:23 | 52.32435 | 168.21037 | 30824 ft | 526 kts | 39° |
| 2026-05-08 00:24 | 52.37758 | 168.29221 | 30831 ft | 525 kts | 39° |
| 2026-05-08 00:24 | 52.43075 | 168.37423 | 30827 ft | 525 kts | 39° |
| 2026-05-08 00:25 | 52.48386 | 168.45644 | 30840 ft | 525 kts | 39° |
| 2026-05-08 00:25 | 52.53683 | 168.53874 | 30835 ft | 524 kts | 40° |
| 2026-05-08 00:26 | 52.58965 | 168.62109 | 30828 ft | 523 kts | 40° |
| 2026-05-08 00:26 | 52.64236 | 168.70357 | 30829 ft | 522 kts | 40° |
| 2026-05-08 00:27 | 52.69495 | 168.78613 | 30833 ft | 522 kts | 40° |
| 2026-05-08 00:27 | 52.74752 | 168.86893 | 30849 ft | 522 kts | 40° |
| 2026-05-08 00:28 | 52.79994 | 168.95180 | 30837 ft | 521 kts | 41° |
| 2026-05-08 00:28 | 52.85185 | 169.03419 | 30830 ft | 520 kts | 41° |
| 2026-05-08 00:29 | 52.90398 | 169.11719 | 30836 ft | 519 kts | 41° |
| 2026-05-08 00:29 | 52.95603 | 169.20034 | 30839 ft | 519 kts | 41° |
| 2026-05-08 00:30 | 53.00797 | 169.28362 | 30842 ft | 519 kts | 41° |
| 2026-05-08 00:30 | 53.05980 | 169.36700 | 30847 ft | 519 kts | 42° |
| 2026-05-08 00:31 | 53.11155 | 169.45059 | 30839 ft | 518 kts | 42° |
| 2026-05-08 00:31 | 53.16280 | 169.53364 | 30840 ft | 517 kts | 42° |
| 2026-05-08 00:32 | 53.21427 | 169.61734 | 30841 ft | 516 kts | 42° |
| 2026-05-08 00:32 | 53.26598 | 169.70033 | 30838 ft | 515 kts | 38° |
| 2026-05-08 00:33 | 53.32198 | 169.77430 | 30858 ft | 512 kts | 36° |
| 2026-05-08 00:33 | 53.37864 | 169.84668 | 30844 ft | 512 kts | 36° |
| 2026-05-08 00:34 | 53.43508 | 169.91960 | 30842 ft | 512 kts | 36° |
| 2026-05-08 00:34 | 53.49126 | 169.99305 | 30845 ft | 511 kts | 37° |
| 2026-05-08 00:35 | 53.54730 | 170.06677 | 30847 ft | 511 kts | 37° |
| 2026-05-08 00:35 | 53.60327 | 170.14063 | 30846 ft | 511 kts | 37° |
| 2026-05-08 00:36 | 53.65891 | 170.21427 | 30849 ft | 511 kts | 37° |
| 2026-05-08 00:36 | 53.71484 | 170.28853 | 30850 ft | 512 kts | 37° |
| 2026-05-08 00:37 | 53.77081 | 170.36311 | 30855 ft | 512 kts | 37° |
| 2026-05-08 00:38 | 53.85461 | 170.47527 | 30857 ft | 512 kts | 37° |
| 2026-05-08 00:38 | 53.91049 | 170.55034 | 30851 ft | 512 kts | 38° |
| 2026-05-08 00:39 | 53.96609 | 170.62535 | 30852 ft | 510 kts | 38° |
| 2026-05-08 00:39 | 54.02117 | 170.69994 | 30855 ft | 508 kts | 38° |
| 2026-05-08 00:40 | 54.07640 | 170.77497 | 30858 ft | 507 kts | 38° |
| 2026-05-08 00:40 | 54.13148 | 170.85006 | 30857 ft | 507 kts | 38° |
| 2026-05-08 00:41 | 54.18649 | 170.92532 | 30870 ft | 507 kts | 39° |
| 2026-05-08 00:41 | 54.24148 | 171.00076 | 30854 ft | 506 kts | 39° |
| 2026-05-08 00:42 | 54.29625 | 171.07623 | 30862 ft | 505 kts | 40° |
| 2026-05-08 00:42 | 54.35083 | 171.15170 | 30863 ft | 504 kts | 40° |
| 2026-05-08 00:43 | 54.40536 | 171.22736 | 30866 ft | 504 kts | 40° |
| 2026-05-08 00:43 | 54.45062 | 171.29035 | 30869 ft | 504 kts | 40° |
| 2026-05-08 00:44 | 54.50499 | 171.36627 | 30868 ft | 504 kts | 40° |
| 2026-05-08 00:44 | 54.56813 | 171.45476 | 30861 ft | 502 kts | 41° |
| 2026-05-08 00:45 | 54.61346 | 171.51854 | 30866 ft | 502 kts | 41° |
| 2026-05-08 00:45 | 54.66747 | 171.59478 | 30871 ft | 501 kts | 41° |
| 2026-05-08 00:46 | 54.72105 | 171.67066 | 30871 ft | 501 kts | 41° |
| 2026-05-08 00:46 | 54.77527 | 171.74772 | 30872 ft | 501 kts | 41° |
| 2026-05-08 00:47 | 54.82869 | 171.82394 | 30866 ft | 500 kts | 41° |
| 2026-05-08 00:47 | 54.88235 | 171.90075 | 30863 ft | 499 kts | 41° |
| 2026-05-08 00:48 | 54.93589 | 171.97767 | 30870 ft | 499 kts | 42° |
| 2026-05-08 00:48 | 54.98799 | 172.05728 | 30871 ft | 498 kts | 45° |
| 2026-05-08 00:49 | 55.03892 | 172.13907 | 30879 ft | 498 kts | 45° |
| 2026-05-08 00:49 | 55.08993 | 172.22105 | 30875 ft | 498 kts | 45° |
| 2026-05-08 00:50 | 55.14099 | 172.30262 | 30852 ft | 498 kts | 45° |
| 2026-05-08 00:50 | 55.19207 | 172.38412 | 30873 ft | 497 kts | 45° |
| 2026-05-08 00:51 | 55.24306 | 172.46581 | 30877 ft | 496 kts | 46° |
| 2026-05-08 00:51 | 55.29358 | 172.54706 | 30880 ft | 496 kts | 46° |
| 2026-05-08 00:52 | 55.34438 | 172.62909 | 30880 ft | 496 kts | 46° |
| 2026-05-08 00:52 | 55.39514 | 172.71134 | 30882 ft | 496 kts | 46° |
| 2026-05-08 00:53 | 55.44585 | 172.79380 | 30856 ft | 496 kts | 47° |
| 2026-05-08 00:53 | 55.49638 | 172.87627 | 30877 ft | 495 kts | 47° |
| 2026-05-08 00:54 | 55.54686 | 172.95901 | 30910 ft | 496 kts | 47° |
| 2026-05-08 00:54 | 55.57218 | 173.00063 | 31087 ft | 498 kts | 47° |
| 2026-05-08 00:54 | 55.59750 | 173.04231 | 31386 ft | 497 kts | 47° |
| 2026-05-08 00:54 | 55.62279 | 173.08397 | 31715 ft | 496 kts | 47° |
| 2026-05-08 00:55 | 55.64798 | 173.12558 | 32014 ft | 495 kts | 47° |
| 2026-05-08 00:55 | 55.67314 | 173.16723 | 32284 ft | 495 kts | 47° |
| 2026-05-08 00:55 | 55.69828 | 173.20892 | 32518 ft | 496 kts | 47° |
| 2026-05-08 00:55 | 55.72345 | 173.25075 | 32755 ft | 496 kts | 47° |
| 2026-05-08 00:56 | 55.74867 | 173.29270 | 32801 ft | 497 kts | 47° |
| 2026-05-08 00:56 | 55.79905 | 173.37678 | 32883 ft | 495 kts | 48° |
| 2026-05-08 00:57 | 55.84880 | 173.46013 | 32894 ft | 494 kts | 48° |
| 2026-05-08 00:57 | 55.89877 | 173.54414 | 32895 ft | 494 kts | 49° |
| 2026-05-08 00:58 | 55.94861 | 173.62825 | 32894 ft | 493 kts | 49° |
| 2026-05-08 00:58 | 55.99837 | 173.71255 | 32900 ft | 493 kts | 49° |
| 2026-05-08 00:59 | 56.04807 | 173.79704 | 32897 ft | 492 kts | 49° |
| 2026-05-08 00:59 | 56.09764 | 173.88164 | 32903 ft | 493 kts | 49° |
| 2026-05-08 01:00 | 56.14718 | 173.96652 | 32904 ft | 493 kts | 50° |
| 2026-05-08 01:00 | 56.19669 | 174.05165 | 32902 ft | 493 kts | 50° |
| 2026-05-08 01:01 | 56.24610 | 174.13693 | 32915 ft | 492 kts | 50° |
| 2026-05-08 01:01 | 56.29543 | 174.22240 | 32912 ft | 492 kts | 50° |
| 2026-05-08 01:02 | 56.34471 | 174.30807 | 32892 ft | 492 kts | 51° |
| 2026-05-08 01:02 | 56.39382 | 174.39381 | 32918 ft | 491 kts | 51° |
| 2026-05-08 01:03 | 56.44262 | 174.47934 | 32901 ft | 492 kts | 51° |
| 2026-05-08 01:03 | 56.49196 | 174.56613 | 32921 ft | 491 kts | 51° |
| 2026-05-08 01:04 | 56.54057 | 174.65195 | 32925 ft | 491 kts | 51° |
| 2026-05-08 01:04 | 56.58937 | 174.73844 | 32918 ft | 490 kts | 51° |
| 2026-05-08 01:05 | 56.63812 | 174.82516 | 32922 ft | 490 kts | 52° |
| 2026-05-08 01:05 | 56.68673 | 174.91198 | 32943 ft | 490 kts | 52° |
| 2026-05-08 01:06 | 56.73532 | 174.99910 | 32926 ft | 490 kts | 52° |
| 2026-05-08 01:06 | 56.78383 | 175.08639 | 32929 ft | 490 kts | 52° |
| 2026-05-08 01:07 | 56.83223 | 175.17383 | 32945 ft | 490 kts | 52° |
| 2026-05-08 01:07 | 56.88062 | 175.26161 | 32942 ft | 491 kts | 52° |
| 2026-05-08 01:08 | 56.92902 | 175.34971 | 32930 ft | 490 kts | 53° |
| 2026-05-08 01:08 | 56.97718 | 175.43772 | 32948 ft | 489 kts | 53° |
| 2026-05-08 01:09 | 57.02529 | 175.52601 | 32947 ft | 489 kts | 53° |
| 2026-05-08 01:09 | 57.07329 | 175.61442 | 32945 ft | 488 kts | 53° |
| 2026-05-08 01:10 | 57.12116 | 175.70294 | 32951 ft | 488 kts | 53° |
| 2026-05-08 01:10 | 57.16899 | 175.79173 | 32958 ft | 488 kts | 54° |
| 2026-05-08 01:11 | 57.21672 | 175.88068 | 32941 ft | 487 kts | 53° |
| 2026-05-08 01:11 | 57.26402 | 175.96915 | 32970 ft | 487 kts | 54° |
| 2026-05-08 01:12 | 57.31151 | 176.05836 | 32974 ft | 487 kts | 54° |
| 2026-05-08 01:12 | 57.35898 | 176.14787 | 32972 ft | 487 kts | 54° |
| 2026-05-08 01:13 | 57.40637 | 176.23759 | 32988 ft | 488 kts | 54° |
| 2026-05-08 01:13 | 57.45384 | 176.32781 | 32983 ft | 489 kts | 54° |
| 2026-05-08 01:14 | 57.50128 | 176.41829 | 32944 ft | 488 kts | 53° |
| 2026-05-08 01:14 | 57.54900 | 176.50829 | 32983 ft | 489 kts | 53° |
| 2026-05-08 01:15 | 57.59691 | 176.59806 | 33002 ft | 489 kts | 53° |
| 2026-05-08 01:15 | 57.64479 | 176.68825 | 32998 ft | 489 kts | 53° |
| 2026-05-08 01:16 | 57.69255 | 176.77877 | 33010 ft | 489 kts | 53° |
| 2026-05-08 01:16 | 57.73985 | 176.86884 | 33006 ft | 488 kts | 53° |
| 2026-05-08 01:17 | 57.78735 | 176.95966 | 33017 ft | 488 kts | 53° |
| 2026-05-08 01:17 | 57.83468 | 177.05056 | 33010 ft | 486 kts | 52° |
| 2026-05-08 01:18 | 57.88191 | 177.14154 | 33016 ft | 486 kts | 52° |
| 2026-05-08 01:18 | 57.92904 | 177.23275 | 33014 ft | 486 kts | 52° |
| 2026-05-08 01:19 | 57.97618 | 177.32433 | 33029 ft | 487 kts | 52° |
| 2026-05-08 01:19 | 58.02327 | 177.41620 | 33034 ft | 487 kts | 52° |
| 2026-05-08 01:20 | 58.07035 | 177.50841 | 33033 ft | 488 kts | 52° |
| 2026-05-08 01:20 | 58.11734 | 177.60081 | 33034 ft | 487 kts | 52° |
| 2026-05-08 01:21 | 58.16430 | 177.69352 | 33033 ft | 488 kts | 52° |
| 2026-05-08 01:21 | 58.21121 | 177.78651 | 33038 ft | 487 kts | 52° |
| 2026-05-08 01:22 | 58.25794 | 177.87953 | 33053 ft | 487 kts | 52° |
| 2026-05-08 01:22 | 58.30461 | 177.97282 | 33051 ft | 487 kts | 52° |
| 2026-05-08 01:23 | 58.35120 | 178.06633 | 33056 ft | 487 kts | 52° |
| 2026-05-08 01:23 | 58.39771 | 178.16008 | 33035 ft | 486 kts | 51° |
| 2026-05-08 01:24 | 58.44377 | 178.25326 | 33050 ft | 485 kts | 51° |
| 2026-05-08 01:24 | 58.48997 | 178.34711 | 33067 ft | 485 kts | 51° |
| 2026-05-08 01:25 | 58.53607 | 178.44116 | 33068 ft | 484 kts | 51° |
| 2026-05-08 01:25 | 58.58206 | 178.53540 | 33079 ft | 484 kts | 51° |
| 2026-05-08 01:26 | 58.62803 | 178.62997 | 33082 ft | 484 kts | 51° |
| 2026-05-08 01:26 | 58.67389 | 178.72470 | 33078 ft | 484 kts | 51° |
| 2026-05-08 01:27 | 58.71966 | 178.81969 | 33083 ft | 484 kts | 51° |
| 2026-05-08 01:27 | 58.76531 | 178.91472 | 33077 ft | 483 kts | 51° |
| 2026-05-08 01:28 | 58.81082 | 179.00988 | 33096 ft | 483 kts | 51° |
| 2026-05-08 01:28 | 58.85626 | 179.10533 | 33094 ft | 482 kts | 51° |
| 2026-05-08 01:29 | 58.90157 | 179.20089 | 33096 ft | 482 kts | 51° |
| 2026-05-08 01:29 | 58.94680 | 179.29670 | 33100 ft | 482 kts | 51° |
| 2026-05-08 01:30 | 58.99195 | 179.39274 | 33087 ft | 482 kts | 51° |
| 2026-05-08 01:30 | 59.03700 | 179.48893 | 33103 ft | 481 kts | 51° |
| 2026-05-08 01:31 | 59.08188 | 179.58520 | 33107 ft | 480 kts | 50° |
| 2026-05-08 01:31 | 59.12635 | 179.68096 | 33112 ft | 480 kts | 51° |
| 2026-05-08 01:32 | 59.17128 | 179.77813 | 33106 ft | 479 kts | 51° |
| 2026-05-08 01:32 | 59.21551 | 179.87420 | 33106 ft | 479 kts | 51° |
| 2026-05-08 01:33 | 59.25998 | 179.97121 | 33109 ft | 479 kts | 51° |
| 2026-05-08 01:33 | 59.30439 | -179.93150 | 33117 ft | 479 kts | 50° |
| 2026-05-08 01:34 | 59.34865 | -179.83417 | 33120 ft | 478 kts | 50° |
| 2026-05-08 01:34 | 59.39281 | -179.73660 | 33124 ft | 478 kts | 51° |
| 2026-05-08 01:35 | 59.43687 | -179.63886 | 33130 ft | 478 kts | 51° |
| 2026-05-08 01:35 | 59.48085 | -179.54086 | 33127 ft | 478 kts | 51° |
| 2026-05-08 01:36 | 59.51732 | -179.45928 | 33131 ft | 478 kts | 51° |
| 2026-05-08 01:36 | 59.56114 | -179.36088 | 33134 ft | 477 kts | 51° |
| 2026-05-08 01:37 | 59.60486 | -179.26230 | 33128 ft | 478 kts | 51° |
| 2026-05-08 01:37 | 59.64857 | -179.16330 | 33139 ft | 477 kts | 51° |
| 2026-05-08 01:38 | 59.69216 | -179.06415 | 33139 ft | 478 kts | 51° |
| 2026-05-08 01:38 | 59.73567 | -178.96473 | 33144 ft | 478 kts | 51° |
| 2026-05-08 01:39 | 59.77913 | -178.86501 | 33147 ft | 478 kts | 51° |
| 2026-05-08 01:39 | 59.82253 | -178.76501 | 33147 ft | 478 kts | 51° |
| 2026-05-08 01:40 | 59.86582 | -178.66481 | 33146 ft | 478 kts | 51° |
| 2026-05-08 01:40 | 59.90901 | -178.56440 | 33147 ft | 477 kts | 51° |
| 2026-05-08 01:41 | 59.95209 | -178.46380 | 33162 ft | 477 kts | 52° |
| 2026-05-08 01:41 | 59.99506 | -178.36304 | 33161 ft | 477 kts | 52° |
| 2026-05-08 01:42 | 60.03799 | -178.26191 | 33160 ft | 477 kts | 52° |
| 2026-05-08 01:42 | 60.08080 | -178.16063 | 33167 ft | 477 kts | 52° |
| 2026-05-08 01:43 | 60.12357 | -178.05900 | 33168 ft | 477 kts | 52° |
| 2026-05-08 01:43 | 60.16624 | -177.95718 | 33161 ft | 476 kts | 51° |
| 2026-05-08 01:44 | 60.21157 | -177.86034 | 33163 ft | 477 kts | 42° |
| 2026-05-08 01:44 | 60.26291 | -177.77595 | 33175 ft | 476 kts | 40° |
| 2026-05-08 01:45 | 60.31449 | -177.69209 | 33171 ft | 476 kts | 41° |
| 2026-05-08 01:45 | 60.36573 | -177.60771 | 33175 ft | 475 kts | 41° |
| 2026-05-08 01:46 | 60.41678 | -177.52275 | 33185 ft | 475 kts | 41° |
| 2026-05-08 01:46 | 60.46738 | -177.43800 | 33177 ft | 475 kts | 41° |
| 2026-05-08 01:47 | 60.51829 | -177.35240 | 33189 ft | 475 kts | 41° |
| 2026-05-08 01:47 | 60.56915 | -177.26657 | 33186 ft | 475 kts | 41° |
| 2026-05-08 01:48 | 60.64522 | -177.13747 | 33182 ft | 474 kts | 41° |
| 2026-05-08 01:48 | 60.69572 | -177.05131 | 33184 ft | 473 kts | 41° |
| 2026-05-08 01:49 | 60.74603 | -176.96511 | 33185 ft | 472 kts | 41° |
| 2026-05-08 01:49 | 60.79625 | -176.87873 | 33190 ft | 471 kts | 41° |
| 2026-05-08 01:50 | 60.84636 | -176.79216 | 33193 ft | 471 kts | 41° |
| 2026-05-08 01:50 | 60.89642 | -176.70530 | 33193 ft | 471 kts | 41° |
| 2026-05-08 01:51 | 60.94644 | -176.61813 | 33200 ft | 471 kts | 41° |
| 2026-05-08 01:51 | 60.99644 | -176.53065 | 33206 ft | 471 kts | 41° |
| 2026-05-08 01:52 | 61.04624 | -176.44312 | 33191 ft | 470 kts | 41° |
| 2026-05-08 01:52 | 61.09587 | -176.35553 | 33197 ft | 468 kts | 41° |
| 2026-05-08 01:53 | 61.14523 | -176.26804 | 33198 ft | 466 kts | 41° |
| 2026-05-08 01:53 | 61.19436 | -176.18059 | 33207 ft | 466 kts | 41° |
| 2026-05-08 01:54 | 61.24342 | -176.09288 | 33205 ft | 465 kts | 41° |
| 2026-05-08 01:54 | 61.29242 | -176.00489 | 33201 ft | 466 kts | 41° |
| 2026-05-08 01:55 | 61.34108 | -175.91717 | 33205 ft | 466 kts | 41° |
| 2026-05-08 01:55 | 61.39008 | -175.82844 | 33208 ft | 467 kts | 41° |
| 2026-05-08 01:56 | 61.43902 | -175.73941 | 33215 ft | 466 kts | 41° |
| 2026-05-08 01:56 | 61.48784 | -175.65026 | 33202 ft | 465 kts | 41° |
| 2026-05-08 01:57 | 61.53646 | -175.56108 | 33206 ft | 464 kts | 41° |
| 2026-05-08 01:57 | 61.58484 | -175.47194 | 33210 ft | 463 kts | 41° |
| 2026-05-08 01:58 | 61.63313 | -175.38258 | 33209 ft | 462 kts | 41° |
| 2026-05-08 01:58 | 61.68125 | -175.29316 | 33211 ft | 461 kts | 41° |
| 2026-05-08 01:59 | 61.72932 | -175.20344 | 33216 ft | 461 kts | 41° |
| 2026-05-08 01:59 | 61.77730 | -175.11350 | 33216 ft | 462 kts | 41° |
| 2026-05-08 02:00 | 61.82532 | -175.02309 | 33219 ft | 462 kts | 41° |
| 2026-05-08 02:00 | 61.87325 | -174.93241 | 33228 ft | 462 kts | 40° |
| 2026-05-08 02:01 | 61.92109 | -174.84157 | 33214 ft | 461 kts | 40° |
| 2026-05-08 02:01 | 61.96869 | -174.75079 | 33217 ft | 460 kts | 41° |
| 2026-05-08 02:02 | 62.01619 | -174.65979 | 33217 ft | 459 kts | 41° |
| 2026-05-08 02:02 | 62.06352 | -174.56870 | 33220 ft | 458 kts | 41° |
| 2026-05-08 02:03 | 62.11078 | -174.47735 | 33220 ft | 458 kts | 41° |
| 2026-05-08 02:03 | 62.15793 | -174.38581 | 33221 ft | 458 kts | 41° |
| 2026-05-08 02:04 | 62.20511 | -174.29383 | 33226 ft | 459 kts | 41° |
| 2026-05-08 02:04 | 62.25191 | -174.20217 | 33226 ft | 459 kts | 41° |
| 2026-05-08 02:05 | 62.29898 | -174.10955 | 33234 ft | 459 kts | 41° |
| 2026-05-08 02:05 | 62.34600 | -174.01667 | 33224 ft | 458 kts | 41° |
| 2026-05-08 02:06 | 62.39285 | -173.92366 | 33225 ft | 458 kts | 41° |
| 2026-05-08 02:06 | 62.43958 | -173.83050 | 33233 ft | 457 kts | 41° |
| 2026-05-08 02:07 | 62.48617 | -173.73722 | 33231 ft | 456 kts | 41° |
| 2026-05-08 02:07 | 62.53264 | -173.64375 | 33234 ft | 456 kts | 41° |
| 2026-05-08 02:08 | 62.57894 | -173.55019 | 33234 ft | 456 kts | 41° |
| 2026-05-08 02:08 | 62.62536 | -173.45600 | 33234 ft | 456 kts | 41° |
| 2026-05-08 02:09 | 62.67169 | -173.36154 | 33242 ft | 457 kts | 41° |
| 2026-05-08 02:09 | 62.71798 | -173.26669 | 33242 ft | 457 kts | 41° |
| 2026-05-08 02:10 | 62.76422 | -173.17160 | 33232 ft | 456 kts | 41° |
| 2026-05-08 02:10 | 62.81034 | -173.07630 | 33232 ft | 455 kts | 41° |
| 2026-05-08 02:11 | 62.85598 | -172.98157 | 33241 ft | 455 kts | 41° |
| 2026-05-08 02:11 | 62.90185 | -172.88593 | 33238 ft | 455 kts | 41° |
| 2026-05-08 02:12 | 62.94755 | -172.79019 | 33240 ft | 454 kts | 41° |
| 2026-05-08 02:12 | 62.99327 | -172.69400 | 33236 ft | 455 kts | 41° |
| 2026-05-08 02:13 | 63.03890 | -172.59754 | 33238 ft | 455 kts | 41° |
| 2026-05-08 02:13 | 63.08452 | -172.50065 | 33239 ft | 455 kts | 41° |
| 2026-05-08 02:14 | 63.13008 | -172.40348 | 33261 ft | 456 kts | 41° |
| 2026-05-08 02:14 | 63.17566 | -172.30580 | 33245 ft | 456 kts | 41° |
| 2026-05-08 02:15 | 63.22120 | -172.20773 | 33245 ft | 457 kts | 41° |
| 2026-05-08 02:15 | 63.26670 | -172.10929 | 33245 ft | 457 kts | 41° |
| 2026-05-08 02:16 | 63.31217 | -172.01048 | 33245 ft | 457 kts | 41° |
| 2026-05-08 02:16 | 63.35754 | -171.91143 | 33244 ft | 457 kts | 41° |
| 2026-05-08 02:17 | 63.40288 | -171.81198 | 33250 ft | 457 kts | 41° |
| 2026-05-08 02:17 | 63.44815 | -171.71221 | 33260 ft | 457 kts | 41° |
| 2026-05-08 02:18 | 63.49303 | -171.61283 | 33256 ft | 457 kts | 42° |
| 2026-05-08 02:18 | 63.53823 | -171.51226 | 33261 ft | 457 kts | 42° |
| 2026-05-08 02:19 | 63.58335 | -171.41143 | 33259 ft | 458 kts | 42° |
| 2026-05-08 02:19 | 63.62841 | -171.31022 | 33257 ft | 458 kts | 42° |
| 2026-05-08 02:20 | 63.67339 | -171.20873 | 33259 ft | 457 kts | 42° |
| 2026-05-08 02:20 | 63.71826 | -171.10699 | 33261 ft | 458 kts | 42° |
| 2026-05-08 02:21 | 63.76308 | -171.00488 | 33261 ft | 458 kts | 42° |
| 2026-05-08 02:21 | 63.80031 | -170.91970 | 33258 ft | 458 kts | 42° |
| 2026-05-08 02:22 | 63.84506 | -170.81684 | 33263 ft | 458 kts | 42° |
| 2026-05-08 02:22 | 63.88983 | -170.71347 | 33258 ft | 459 kts | 42° |
| 2026-05-08 02:23 | 63.93450 | -170.60980 | 33257 ft | 459 kts | 43° |
| 2026-05-08 02:23 | 63.97917 | -170.50565 | 33269 ft | 460 kts | 43° |
| 2026-05-08 02:24 | 64.02376 | -170.40115 | 33260 ft | 460 kts | 43° |
| 2026-05-08 02:24 | 64.06830 | -170.29625 | 33261 ft | 460 kts | 43° |
| 2026-05-08 02:25 | 64.11248 | -170.19171 | 33254 ft | 460 kts | 43° |
| 2026-05-08 02:25 | 64.15689 | -170.08611 | 33258 ft | 460 kts | 43° |
| 2026-05-08 02:26 | 64.20124 | -169.98013 | 33254 ft | 460 kts | 43° |
| 2026-05-08 02:26 | 64.24544 | -169.87399 | 33255 ft | 459 kts | 43° |
| 2026-05-08 02:27 | 64.28958 | -169.76746 | 33253 ft | 459 kts | 43° |
| 2026-05-08 02:27 | 64.33365 | -169.66058 | 33258 ft | 459 kts | 43° |
| 2026-05-08 02:28 | 64.37732 | -169.55414 | 33263 ft | 460 kts | 43° |
| 2026-05-08 02:28 | 64.42122 | -169.44659 | 33257 ft | 459 kts | 43° |
| 2026-05-08 02:29 | 64.46491 | -169.33905 | 33246 ft | 458 kts | 43° |
| 2026-05-08 02:29 | 64.50847 | -169.23129 | 33251 ft | 457 kts | 44° |
| 2026-05-08 02:30 | 64.55192 | -169.12326 | 33251 ft | 457 kts | 44° |
| 2026-05-08 02:30 | 64.59525 | -169.01496 | 33268 ft | 457 kts | 44° |
| 2026-05-08 02:31 | 64.63821 | -168.90707 | 33248 ft | 457 kts | 44° |
| 2026-05-08 02:31 | 64.68138 | -168.79811 | 33246 ft | 457 kts | 44° |
| 2026-05-08 02:32 | 64.72446 | -168.68881 | 33252 ft | 457 kts | 44° |
| 2026-05-08 02:32 | 64.76749 | -168.57911 | 33247 ft | 457 kts | 44° |
| 2026-05-08 02:33 | 64.81043 | -168.46906 | 33252 ft | 457 kts | 44° |
| 2026-05-08 02:33 | 64.85327 | -168.35870 | 33248 ft | 456 kts | 44° |
| 2026-05-08 02:34 | 64.89594 | -168.24822 | 33244 ft | 456 kts | 44° |
| 2026-05-08 02:34 | 64.93845 | -168.13771 | 33243 ft | 455 kts | 44° |
| 2026-05-08 02:35 | 64.98592 | -168.04284 | 33241 ft | 448 kts | 31° |
| 2026-05-08 02:35 | 65.04049 | -167.97349 | 33247 ft | 444 kts | 21° |
| 2026-05-08 02:36 | 65.09763 | -167.91680 | 33248 ft | 445 kts | 20° |
| 2026-05-08 02:36 | 65.15492 | -167.86012 | 33260 ft | 446 kts | 21° |
| 2026-05-08 02:37 | 65.21222 | -167.80249 | 33253 ft | 447 kts | 21° |
| 2026-05-08 02:37 | 65.26945 | -167.74423 | 33249 ft | 447 kts | 21° |
| 2026-05-08 02:38 | 65.32659 | -167.68563 | 33249 ft | 446 kts | 21° |
| 2026-05-08 02:38 | 65.38364 | -167.62685 | 33256 ft | 446 kts | 21° |
| 2026-05-08 02:39 | 65.44067 | -167.56783 | 33259 ft | 446 kts | 21° |
| 2026-05-08 02:39 | 65.49728 | -167.50896 | 33265 ft | 446 kts | 21° |
| 2026-05-08 02:40 | 65.55428 | -167.44946 | 33256 ft | 446 kts | 21° |
| 2026-05-08 02:40 | 65.61128 | -167.38960 | 33254 ft | 446 kts | 21° |
| 2026-05-08 02:41 | 65.66821 | -167.32953 | 33257 ft | 447 kts | 21° |
| 2026-05-08 02:41 | 65.72519 | -167.26915 | 33272 ft | 447 kts | 21° |
| 2026-05-08 02:42 | 65.78220 | -167.20844 | 33261 ft | 447 kts | 21° |
| 2026-05-08 02:42 | 65.83912 | -167.14753 | 33252 ft | 446 kts | 21° |
| 2026-05-08 02:43 | 65.89597 | -167.08640 | 33259 ft | 446 kts | 21° |
| 2026-05-08 02:43 | 65.95263 | -167.02519 | 33263 ft | 443 kts | 21° |
| 2026-05-08 02:44 | 66.00882 | -166.96414 | 33260 ft | 441 kts | 21° |
| 2026-05-08 02:44 | 66.06449 | -166.90341 | 33266 ft | 440 kts | 21° |
| 2026-05-08 02:45 | 66.12053 | -166.84197 | 33258 ft | 441 kts | 21° |
| 2026-05-08 02:45 | 66.17657 | -166.78025 | 33264 ft | 441 kts | 21° |
| 2026-05-08 02:46 | 66.23273 | -166.71809 | 33265 ft | 442 kts | 21° |
| 2026-05-08 02:46 | 66.28897 | -166.65553 | 33260 ft | 443 kts | 22° |
| 2026-05-08 02:47 | 66.34527 | -166.59258 | 33275 ft | 444 kts | 21° |
| 2026-05-08 02:47 | 66.40162 | -166.52927 | 33259 ft | 444 kts | 22° |
| 2026-05-08 02:48 | 66.45796 | -166.46565 | 33258 ft | 444 kts | 22° |
| 2026-05-08 02:48 | 66.51384 | -166.40224 | 33260 ft | 443 kts | 22° |
| 2026-05-08 02:49 | 66.57001 | -166.33819 | 33254 ft | 443 kts | 22° |
| 2026-05-08 02:49 | 66.62611 | -166.27389 | 33264 ft | 443 kts | 22° |
| 2026-05-08 02:50 | 66.68217 | -166.20932 | 33252 ft | 443 kts | 22° |
| 2026-05-08 02:50 | 66.73821 | -166.14446 | 33253 ft | 443 kts | 22° |
| 2026-05-08 02:51 | 66.79423 | -166.07927 | 33252 ft | 443 kts | 22° |
| 2026-05-08 02:51 | 66.85018 | -166.01386 | 33253 ft | 443 kts | 22° |
| 2026-05-08 02:52 | 66.90615 | -165.94808 | 33253 ft | 443 kts | 22° |
| 2026-05-08 02:52 | 66.96217 | -165.88191 | 33258 ft | 443 kts | 22° |
| 2026-05-08 02:53 | 67.01807 | -165.81554 | 33249 ft | 443 kts | 22° |
| 2026-05-08 02:53 | 67.07366 | -165.74921 | 33251 ft | 443 kts | 22° |
| 2026-05-08 02:54 | 67.12954 | -165.68219 | 33253 ft | 443 kts | 22° |
| 2026-05-08 02:54 | 67.18538 | -165.61487 | 33251 ft | 443 kts | 22° |
| 2026-05-08 02:55 | 67.26911 | -165.51328 | 33251 ft | 443 kts | 22° |
| 2026-05-08 02:56 | 67.32492 | -165.44513 | 33244 ft | 443 kts | 22° |
| 2026-05-08 02:56 | 67.38070 | -165.37666 | 33245 ft | 443 kts | 22° |
| 2026-05-08 02:57 | 67.43607 | -165.30833 | 33236 ft | 443 kts | 22° |
| 2026-05-08 02:57 | 67.49186 | -165.23913 | 33237 ft | 443 kts | 22° |
| 2026-05-08 02:58 | 67.54753 | -165.16973 | 33241 ft | 444 kts | 22° |
| 2026-05-08 02:58 | 67.60327 | -165.09986 | 33231 ft | 444 kts | 22° |
| 2026-05-08 02:59 | 67.65896 | -165.02971 | 33232 ft | 444 kts | 22° |
| 2026-05-08 02:59 | 67.71470 | -164.95910 | 33217 ft | 444 kts | 22° |
| 2026-05-08 03:00 | 67.77038 | -164.88820 | 33211 ft | 444 kts | 22° |
| 2026-05-08 03:00 | 67.82573 | -164.81734 | 33240 ft | 445 kts | 22° |
| 2026-05-08 03:01 | 67.88130 | -164.74579 | 33222 ft | 443 kts | 22° |
| 2026-05-08 03:01 | 67.93664 | -164.67417 | 33209 ft | 442 kts | 22° |
| 2026-05-08 03:02 | 67.99181 | -164.60242 | 33209 ft | 440 kts | 23° |
| 2026-05-08 03:02 | 68.04675 | -164.53060 | 33218 ft | 440 kts | 23° |
| 2026-05-08 03:03 | 68.10165 | -164.45843 | 33218 ft | 440 kts | 23° |
| 2026-05-08 03:03 | 68.15654 | -164.38589 | 33226 ft | 440 kts | 23° |
| 2026-05-08 03:04 | 68.21161 | -164.31272 | 33220 ft | 441 kts | 23° |
| 2026-05-08 03:04 | 68.26667 | -164.23916 | 33221 ft | 442 kts | 23° |
| 2026-05-08 03:05 | 68.32146 | -164.16557 | 33215 ft | 442 kts | 23° |
| 2026-05-08 03:05 | 68.37655 | -164.09117 | 33220 ft | 442 kts | 23° |
| 2026-05-08 03:06 | 68.43161 | -164.01639 | 33226 ft | 443 kts | 23° |
| 2026-05-08 03:06 | 68.48677 | -163.94107 | 33227 ft | 443 kts | 23° |
| 2026-05-08 03:07 | 68.54180 | -163.86553 | 33227 ft | 443 kts | 23° |
| 2026-05-08 03:07 | 68.59684 | -163.78954 | 33245 ft | 442 kts | 23° |
| 2026-05-08 03:08 | 68.65175 | -163.71332 | 33243 ft | 443 kts | 23° |
| 2026-05-08 03:08 | 68.70674 | -163.63656 | 33245 ft | 442 kts | 23° |
| 2026-05-08 03:09 | 68.75234 | -163.57258 | 33249 ft | 442 kts | 23° |
| 2026-05-08 03:09 | 68.81611 | -163.48264 | 33239 ft | 443 kts | 23° |
| 2026-05-08 03:10 | 68.87088 | -163.40490 | 33253 ft | 443 kts | 23° |
| 2026-05-08 03:10 | 68.91685 | -163.33931 | 33259 ft | 443 kts | 23° |
| 2026-05-08 03:11 | 68.97132 | -163.26120 | 33251 ft | 443 kts | 23° |
| 2026-05-08 03:11 | 69.02607 | -163.18224 | 33266 ft | 443 kts | 23° |
| 2026-05-08 03:12 | 69.08090 | -163.10273 | 33264 ft | 444 kts | 23° |
| 2026-05-08 03:12 | 69.13566 | -163.02286 | 33268 ft | 444 kts | 23° |
| 2026-05-08 03:13 | 69.19052 | -162.94240 | 33267 ft | 445 kts | 23° |
| 2026-05-08 03:13 | 69.24535 | -162.86150 | 33270 ft | 445 kts | 23° |
| 2026-05-08 03:14 | 69.30020 | -162.78013 | 33267 ft | 445 kts | 24° |
| 2026-05-08 03:14 | 69.35505 | -162.69826 | 33292 ft | 445 kts | 23° |
| 2026-05-08 03:15 | 69.40985 | -162.61600 | 33268 ft | 446 kts | 24° |
| 2026-05-08 03:15 | 69.46424 | -162.53389 | 33275 ft | 446 kts | 24° |
| 2026-05-08 03:16 | 69.51898 | -162.45077 | 33272 ft | 446 kts | 24° |
| 2026-05-08 03:16 | 69.57367 | -162.36723 | 33270 ft | 446 kts | 24° |
| 2026-05-08 03:17 | 69.62837 | -162.28319 | 33274 ft | 446 kts | 24° |
| 2026-05-08 03:17 | 69.68307 | -162.19865 | 33283 ft | 447 kts | 24° |
| 2026-05-08 03:18 | 69.73781 | -162.11360 | 33304 ft | 447 kts | 24° |
| 2026-05-08 03:18 | 69.79256 | -162.02796 | 33285 ft | 447 kts | 24° |
| 2026-05-08 03:19 | 69.84717 | -161.94200 | 33282 ft | 446 kts | 24° |
| 2026-05-08 03:19 | 69.90135 | -161.85625 | 33279 ft | 446 kts | 24° |
| 2026-05-08 03:20 | 69.95580 | -161.76958 | 33297 ft | 446 kts | 24° |
| 2026-05-08 03:20 | 70.01027 | -161.68236 | 33289 ft | 447 kts | 24° |
| 2026-05-08 03:21 | 70.06478 | -161.59454 | 33283 ft | 447 kts | 24° |
| 2026-05-08 03:21 | 70.11926 | -161.50623 | 33289 ft | 448 kts | 25° |
| 2026-05-08 03:22 | 70.17383 | -161.41723 | 33288 ft | 448 kts | 25° |
| 2026-05-08 03:22 | 70.22838 | -161.32772 | 33294 ft | 448 kts | 25° |
| 2026-05-08 03:23 | 70.28289 | -161.23772 | 33300 ft | 449 kts | 25° |
| 2026-05-08 03:23 | 70.33752 | -161.14699 | 33297 ft | 450 kts | 25° |
| 2026-05-08 03:24 | 70.39174 | -161.05637 | 33289 ft | 450 kts | 25° |
| 2026-05-08 03:24 | 70.44633 | -160.96455 | 33295 ft | 450 kts | 25° |
| 2026-05-08 03:25 | 70.50091 | -160.87219 | 33294 ft | 450 kts | 25° |
| 2026-05-08 03:25 | 70.55540 | -160.77940 | 33295 ft | 450 kts | 25° |
| 2026-05-08 03:26 | 70.60988 | -160.68607 | 33304 ft | 451 kts | 25° |
| 2026-05-08 03:26 | 70.66446 | -160.59196 | 33299 ft | 452 kts | 25° |
| 2026-05-08 03:27 | 70.71865 | -160.49793 | 33296 ft | 452 kts | 25° |
| 2026-05-08 03:27 | 70.77319 | -160.40269 | 33300 ft | 452 kts | 25° |
| 2026-05-08 03:28 | 70.82777 | -160.30677 | 33302 ft | 453 kts | 26° |
| 2026-05-08 03:28 | 70.88234 | -160.21025 | 33301 ft | 453 kts | 26° |
| 2026-05-08 03:29 | 70.93636 | -160.11409 | 33306 ft | 453 kts | 26° |
| 2026-05-08 03:29 | 70.99075 | -160.01672 | 33304 ft | 453 kts | 26° |
| 2026-05-08 03:30 | 71.07119 | -159.86373 | 33307 ft | 454 kts | 28° |
| 2026-05-08 03:31 | 71.17739 | -159.65279 | 33324 ft | 455 kts | 28° |
| 2026-05-08 03:32 | 71.25749 | -159.49327 | 33321 ft | 458 kts | 28° |
| 2026-05-08 03:32 | 71.31114 | -159.38567 | 33316 ft | 459 kts | 28° |
| 2026-05-08 03:33 | 71.36496 | -159.27699 | 33312 ft | 460 kts | 28° |
| 2026-05-08 03:33 | 71.41832 | -159.16848 | 33320 ft | 460 kts | 28° |
| 2026-05-08 03:34 | 71.47199 | -159.05860 | 33340 ft | 461 kts | 29° |
| 2026-05-08 03:34 | 71.52566 | -158.94802 | 33341 ft | 462 kts | 28° |
| 2026-05-08 03:35 | 71.57951 | -158.83650 | 33334 ft | 463 kts | 30° |
| 2026-05-08 03:35 | 71.63337 | -158.72380 | 33312 ft | 464 kts | 30° |
| 2026-05-08 03:36 | 71.68732 | -158.61022 | 33331 ft | 465 kts | 30° |
| 2026-05-08 03:36 | 71.74117 | -158.49611 | 33321 ft | 465 kts | 30° |
| 2026-05-08 03:37 | 71.79508 | -158.38114 | 33328 ft | 467 kts | 30° |
| 2026-05-08 03:37 | 71.84879 | -158.26578 | 33330 ft | 468 kts | 30° |
| 2026-05-08 03:38 | 71.90293 | -158.14866 | 33335 ft | 469 kts | 30° |
| 2026-05-08 03:38 | 71.95708 | -158.03067 | 33331 ft | 470 kts | 30° |
| 2026-05-08 03:39 | 72.01122 | -157.91184 | 33328 ft | 470 kts | 30° |
| 2026-05-08 03:39 | 72.06533 | -157.79223 | 33352 ft | 471 kts | 31° |
| 2026-05-08 03:40 | 72.11914 | -157.67248 | 33335 ft | 472 kts | 31° |
| 2026-05-08 03:40 | 72.17331 | -157.55101 | 33332 ft | 473 kts | 31° |
| 2026-05-08 03:41 | 72.22751 | -157.42858 | 33334 ft | 474 kts | 31° |
| 2026-05-08 03:41 | 72.28172 | -157.30523 | 33334 ft | 474 kts | 31° |
| 2026-05-08 03:42 | 72.33585 | -157.18117 | 33334 ft | 474 kts | 31° |
| 2026-05-08 03:42 | 72.38999 | -157.05618 | 33339 ft | 476 kts | 32° |
| 2026-05-08 03:43 | 72.44424 | -156.92999 | 33336 ft | 477 kts | 32° |
| 2026-05-08 03:43 | 72.49848 | -156.80289 | 33335 ft | 478 kts | 32° |
| 2026-05-08 03:44 | 72.55271 | -156.67481 | 33335 ft | 478 kts | 32° |
| 2026-05-08 03:44 | 72.60696 | -156.54575 | 33334 ft | 478 kts | 32° |
| 2026-05-08 03:45 | 72.66104 | -156.41609 | 33342 ft | 479 kts | 32° |
| 2026-05-08 03:45 | 72.71526 | -156.28514 | 33337 ft | 480 kts | 32° |
| 2026-05-08 03:46 | 72.76949 | -156.15314 | 33335 ft | 481 kts | 33° |
| 2026-05-08 03:46 | 72.82340 | -156.02090 | 33331 ft | 482 kts | 33° |
| 2026-05-08 03:47 | 72.87763 | -155.88683 | 33331 ft | 482 kts | 33° |
| 2026-05-08 03:47 | 72.93175 | -155.75201 | 33362 ft | 482 kts | 33° |
| 2026-05-08 03:48 | 72.98589 | -155.61607 | 33339 ft | 484 kts | 33° |
| 2026-05-08 03:48 | 73.04005 | -155.47903 | 33326 ft | 485 kts | 34° |
| 2026-05-08 03:49 | 73.09423 | -155.34074 | 33337 ft | 486 kts | 34° |
| 2026-05-08 03:49 | 73.14843 | -155.20144 | 33335 ft | 486 kts | 34° |
| 2026-05-08 03:50 | 73.20258 | -155.06116 | 33335 ft | 486 kts | 34° |
| 2026-05-08 03:50 | 73.25663 | -154.91994 | 33339 ft | 487 kts | 35° |
| 2026-05-08 03:51 | 73.31033 | -154.77853 | 33338 ft | 488 kts | 35° |
| 2026-05-08 03:51 | 73.36438 | -154.63504 | 33334 ft | 489 kts | 35° |
| 2026-05-08 03:52 | 73.41833 | -154.49062 | 33333 ft | 489 kts | 35° |
| 2026-05-08 03:52 | 73.47230 | -154.34497 | 33332 ft | 489 kts | 35° |
| 2026-05-08 03:53 | 73.52614 | -154.19848 | 33340 ft | 489 kts | 36° |
| 2026-05-08 03:53 | 73.57991 | -154.05096 | 33332 ft | 490 kts | 36° |
| 2026-05-08 03:54 | 73.63366 | -153.90228 | 33332 ft | 490 kts | 36° |
| 2026-05-08 03:54 | 73.68737 | -153.75244 | 33332 ft | 491 kts | 36° |
| 2026-05-08 03:55 | 73.74062 | -153.60265 | 33330 ft | 491 kts | 36° |
| 2026-05-08 03:55 | 73.79409 | -153.45096 | 33332 ft | 491 kts | 36° |
| 2026-05-08 03:56 | 73.84757 | -153.29796 | 33332 ft | 491 kts | 37° |
| 2026-05-08 03:56 | 73.90084 | -153.14428 | 33332 ft | 491 kts | 37° |
| 2026-05-08 03:57 | 73.95401 | -152.98956 | 33331 ft | 491 kts | 37° |
| 2026-05-08 03:57 | 74.00709 | -152.83380 | 33324 ft | 491 kts | 37° |
| 2026-05-08 03:58 | 74.06001 | -152.67714 | 33324 ft | 491 kts | 37° |
| 2026-05-08 03:58 | 74.11284 | -152.51941 | 33327 ft | 491 kts | 38° |
| 2026-05-08 03:59 | 74.15671 | -152.38739 | 33321 ft | 492 kts | 38° |
| 2026-05-08 03:59 | 74.20948 | -152.22733 | 33321 ft | 492 kts | 38° |
| 2026-05-08 04:00 | 74.26209 | -152.06633 | 33320 ft | 492 kts | 38° |
| 2026-05-08 04:00 | 74.31466 | -151.90403 | 33325 ft | 493 kts | 38° |
| 2026-05-08 04:01 | 74.36706 | -151.74083 | 33340 ft | 493 kts | 38° |
| 2026-05-08 04:01 | 74.41946 | -151.57618 | 33324 ft | 494 kts | 39° |
| 2026-05-08 04:02 | 74.47149 | -151.41127 | 33320 ft | 494 kts | 39° |
| 2026-05-08 04:02 | 74.52372 | -151.24418 | 33321 ft | 494 kts | 39° |
| 2026-05-08 04:03 | 74.57579 | -151.07614 | 33307 ft | 494 kts | 39° |
| 2026-05-08 04:03 | 74.65372 | -150.82174 | 33317 ft | 494 kts | 39° |
| 2026-05-08 04:04 | 74.70556 | -150.65060 | 33307 ft | 495 kts | 40° |
| 2026-05-08 04:04 | 74.75734 | -150.47809 | 33305 ft | 495 kts | 40° |
| 2026-05-08 04:05 | 74.80898 | -150.30444 | 33305 ft | 495 kts | 40° |
| 2026-05-08 04:05 | 74.86047 | -150.12970 | 33305 ft | 495 kts | 40° |
| 2026-05-08 04:06 | 74.91184 | -149.95373 | 33306 ft | 495 kts | 40° |
| 2026-05-08 04:06 | 74.96309 | -149.77655 | 33305 ft | 496 kts | 40° |
| 2026-05-08 04:07 | 75.01425 | -149.59801 | 33302 ft | 496 kts | 41° |
| 2026-05-08 04:07 | 75.06492 | -149.41953 | 33302 ft | 496 kts | 41° |
| 2026-05-08 04:08 | 75.11581 | -149.23851 | 33297 ft | 496 kts | 41° |
| 2026-05-08 04:08 | 75.16664 | -149.05604 | 33297 ft | 496 kts | 41° |
| 2026-05-08 04:09 | 75.21730 | -148.87246 | 33298 ft | 497 kts | 41° |
| 2026-05-08 04:09 | 75.26783 | -148.68756 | 33293 ft | 497 kts | 42° |
| 2026-05-08 04:10 | 75.31826 | -148.50126 | 33294 ft | 497 kts | 41° |
| 2026-05-08 04:10 | 75.36852 | -148.31378 | 33293 ft | 497 kts | 42° |
| 2026-05-08 04:11 | 75.41858 | -148.12516 | 33292 ft | 497 kts | 42° |
| 2026-05-08 04:11 | 75.46849 | -147.93531 | 33300 ft | 497 kts | 42° |
| 2026-05-08 04:12 | 75.51801 | -147.74510 | 33292 ft | 497 kts | 43° |
| 2026-05-08 04:12 | 75.56767 | -147.55243 | 33286 ft | 498 kts | 43° |
| 2026-05-08 04:13 | 75.61723 | -147.35823 | 33284 ft | 498 kts | 43° |
| 2026-05-08 04:13 | 75.66661 | -147.16286 | 33284 ft | 498 kts | 43° |
| 2026-05-08 04:14 | 75.71589 | -146.96594 | 33279 ft | 498 kts | 44° |
| 2026-05-08 04:14 | 75.76503 | -146.76754 | 33282 ft | 498 kts | 44° |
| 2026-05-08 04:15 | 75.81401 | -146.56782 | 33274 ft | 498 kts | 44° |
| 2026-05-08 04:15 | 75.86281 | -146.36676 | 33270 ft | 499 kts | 44° |
| 2026-05-08 04:16 | 75.91150 | -146.16412 | 33275 ft | 499 kts | 44° |
| 2026-05-08 04:16 | 75.95997 | -145.96032 | 33264 ft | 498 kts | 44° |
| 2026-05-08 04:17 | 76.00795 | -145.75644 | 33271 ft | 498 kts | 45° |
| 2026-05-08 04:17 | 76.05612 | -145.54962 | 33263 ft | 499 kts | 45° |
| 2026-05-08 04:18 | 76.10417 | -145.34123 | 33267 ft | 499 kts | 45° |
| 2026-05-08 04:18 | 76.15198 | -145.13172 | 33259 ft | 499 kts | 45° |
| 2026-05-08 04:19 | 76.19966 | -144.92045 | 33257 ft | 499 kts | 45° |
| 2026-05-08 04:19 | 76.24719 | -144.70762 | 33258 ft | 500 kts | 46° |
| 2026-05-08 04:20 | 76.29454 | -144.49347 | 33258 ft | 500 kts | 46° |
| 2026-05-08 04:20 | 76.34173 | -144.27769 | 33259 ft | 500 kts | 46° |
| 2026-05-08 04:21 | 76.38845 | -144.06174 | 33258 ft | 500 kts | 47° |
| 2026-05-08 04:21 | 76.43531 | -143.84268 | 33256 ft | 500 kts | 47° |
| 2026-05-08 04:22 | 76.48194 | -143.62241 | 33231 ft | 500 kts | 47° |
| 2026-05-08 04:22 | 76.52832 | -143.40100 | 33233 ft | 500 kts | 47° |
| 2026-05-08 04:23 | 76.57457 | -143.17763 | 33245 ft | 500 kts | 47° |
| 2026-05-08 04:23 | 76.62062 | -142.95284 | 33249 ft | 500 kts | 47° |
| 2026-05-08 04:24 | 76.66578 | -142.72998 | 33249 ft | 500 kts | 48° |
| 2026-05-08 04:24 | 76.71143 | -142.50210 | 33534 ft | 500 kts | 48° |
| 2026-05-08 04:25 | 76.73416 | -142.38771 | 33824 ft | 500 kts | 48° |
| 2026-05-08 04:25 | 76.75684 | -142.27292 | 34141 ft | 499 kts | 49° |
| 2026-05-08 04:25 | 76.77944 | -142.15788 | 34434 ft | 498 kts | 48° |
| 2026-05-08 04:25 | 76.80188 | -142.04304 | 34772 ft | 496 kts | 49° |
| 2026-05-08 04:26 | 76.82424 | -141.92792 | 34940 ft | 498 kts | 49° |
| 2026-05-08 04:26 | 76.84666 | -141.81191 | 35121 ft | 498 kts | 49° |
| 2026-05-08 04:26 | 76.89147 | -141.57795 | 35216 ft | 502 kts | 49° |
| 2026-05-08 04:27 | 76.93635 | -141.34095 | 35220 ft | 501 kts | 50° |
| 2026-05-08 04:27 | 76.98071 | -141.10420 | 35219 ft | 498 kts | 50° |
| 2026-05-08 04:28 | 77.02275 | -140.86029 | 35226 ft | 497 kts | 54° |
| 2026-05-08 04:28 | 77.06178 | -140.60409 | 35226 ft | 502 kts | 56° |
| 2026-05-08 04:29 | 77.10061 | -140.34350 | 35223 ft | 505 kts | 56° |
| 2026-05-08 04:29 | 77.13954 | -140.08145 | 35219 ft | 505 kts | 56° |
| 2026-05-08 04:30 | 77.17797 | -139.82124 | 35198 ft | 500 kts | 56° |
| 2026-05-08 04:30 | 77.21625 | -139.55918 | 35203 ft | 500 kts | 56° |
| 2026-05-08 04:31 | 77.25428 | -139.29539 | 35209 ft | 501 kts | 56° |
| 2026-05-08 04:31 | 77.29214 | -139.02931 | 35202 ft | 503 kts | 57° |
| 2026-05-08 04:32 | 77.32979 | -138.76113 | 35198 ft | 503 kts | 57° |
| 2026-05-08 04:32 | 77.36718 | -138.49145 | 35190 ft | 503 kts | 57° |
| 2026-05-08 04:33 | 77.40430 | -138.22008 | 35193 ft | 503 kts | 58° |
| 2026-05-08 04:33 | 77.44116 | -137.94712 | 35195 ft | 503 kts | 58° |
| 2026-05-08 04:34 | 77.47773 | -137.67258 | 35183 ft | 503 kts | 58° |
| 2026-05-08 04:34 | 77.51402 | -137.39656 | 35184 ft | 503 kts | 58° |
| 2026-05-08 04:35 | 77.55001 | -137.11899 | 35175 ft | 503 kts | 58° |
| 2026-05-08 04:35 | 77.58571 | -136.83989 | 35176 ft | 503 kts | 59° |
| 2026-05-08 04:36 | 77.62118 | -136.55891 | 35168 ft | 503 kts | 59° |
| 2026-05-08 04:36 | 77.65633 | -136.27646 | 35179 ft | 503 kts | 60° |
| 2026-05-08 04:37 | 77.69097 | -135.99416 | 35179 ft | 504 kts | 60° |
| 2026-05-08 04:37 | 77.72560 | -135.70805 | 35181 ft | 504 kts | 60° |
| 2026-05-08 04:38 | 77.75993 | -135.42043 | 35158 ft | 504 kts | 60° |
| 2026-05-08 04:38 | 77.79395 | -135.13119 | 35154 ft | 503 kts | 61° |
| 2026-05-08 04:39 | 77.82764 | -134.84070 | 35146 ft | 504 kts | 61° |
| 2026-05-08 04:39 | 77.86103 | -134.54847 | 35141 ft | 504 kts | 62° |
| 2026-05-08 04:40 | 77.89414 | -134.25442 | 35146 ft | 505 kts | 62° |
| 2026-05-08 04:40 | 77.92701 | -133.95820 | 35148 ft | 506 kts | 62° |
| 2026-05-08 04:41 | 77.95958 | -133.66027 | 35148 ft | 505 kts | 63° |
| 2026-05-08 04:41 | 77.99185 | -133.36059 | 35142 ft | 506 kts | 63° |
| 2026-05-08 04:42 | 78.02377 | -133.05945 | 35132 ft | 506 kts | 64° |
| 2026-05-08 04:42 | 78.05538 | -132.75659 | 35131 ft | 505 kts | 64° |
| 2026-05-08 04:43 | 78.08670 | -132.45215 | 35124 ft | 505 kts | 64° |
| 2026-05-08 04:43 | 78.11768 | -132.14610 | 35121 ft | 506 kts | 64° |
| 2026-05-08 04:44 | 78.14814 | -131.84022 | 35114 ft | 507 kts | 65° |
| 2026-05-08 04:44 | 78.17849 | -131.53054 | 35122 ft | 507 kts | 65° |
| 2026-05-08 04:45 | 78.20851 | -131.21931 | 35116 ft | 507 kts | 65° |
| 2026-05-08 04:45 | 78.23831 | -130.90534 | 35111 ft | 510 kts | 66° |
| 2026-05-08 04:46 | 78.26787 | -130.58857 | 35090 ft | 511 kts | 66° |
| 2026-05-08 04:46 | 78.29708 | -130.27044 | 35090 ft | 508 kts | 66° |
| 2026-05-08 04:47 | 78.32558 | -129.95457 | 35081 ft | 500 kts | 67° |
| 2026-05-08 04:47 | 78.35351 | -129.63968 | 35098 ft | 502 kts | 68° |
| 2026-05-08 04:48 | 78.37662 | -129.37485 | 35099 ft | 506 kts | 68° |
| 2026-05-08 04:48 | 78.40436 | -129.05210 | 35100 ft | 509 kts | 68° |
| 2026-05-08 04:49 | 78.43179 | -128.72720 | 35095 ft | 509 kts | 68° |
| 2026-05-08 04:49 | 78.45877 | -128.40180 | 35055 ft | 507 kts | 68° |
| 2026-05-08 04:50 | 78.48531 | -128.07600 | 35070 ft | 505 kts | 69° |
| 2026-05-08 04:50 | 78.51142 | -127.74924 | 35070 ft | 505 kts | 69° |
| 2026-05-08 04:51 | 78.53726 | -127.42018 | 35073 ft | 508 kts | 70° |
| 2026-05-08 04:51 | 78.56277 | -127.08922 | 35067 ft | 507 kts | 70° |
| 2026-05-08 04:52 | 78.58787 | -126.75709 | 35068 ft | 506 kts | 70° |
| 2026-05-08 04:52 | 78.61255 | -126.42389 | 35062 ft | 506 kts | 71° |
| 2026-05-08 04:53 | 78.63685 | -126.08960 | 35070 ft | 506 kts | 71° |
| 2026-05-08 04:53 | 78.66084 | -125.75299 | 35050 ft | 508 kts | 71° |
| 2026-05-08 04:54 | 78.68449 | -125.41398 | 35054 ft | 509 kts | 72° |
| 2026-05-08 04:54 | 78.70777 | -125.07329 | 35051 ft | 509 kts | 72° |
| 2026-05-08 04:55 | 78.73066 | -124.73183 | 35049 ft | 508 kts | 72° |
| 2026-05-08 04:55 | 78.75310 | -124.38948 | 35047 ft | 507 kts | 73° |
| 2026-05-08 04:56 | 78.77510 | -124.04681 | 35055 ft | 506 kts | 73° |
| 2026-05-08 04:56 | 78.79655 | -123.70514 | 35055 ft | 506 kts | 73° |
| 2026-05-08 04:57 | 78.81781 | -123.35922 | 35057 ft | 507 kts | 74° |
| 2026-05-08 04:57 | 78.83869 | -123.01147 | 35040 ft | 508 kts | 74° |
| 2026-05-08 04:58 | 78.85916 | -122.66219 | 35039 ft | 508 kts | 75° |
| 2026-05-08 04:58 | 78.87920 | -122.31194 | 35042 ft | 507 kts | 75° |
| 2026-05-08 04:59 | 78.89889 | -121.96074 | 35045 ft | 507 kts | 76° |
| 2026-05-08 04:59 | 78.91815 | -121.60826 | 35032 ft | 507 kts | 76° |
| 2026-05-08 05:00 | 78.93693 | -121.25497 | 35048 ft | 507 kts | 76° |
| 2026-05-08 05:00 | 78.95532 | -120.90074 | 35058 ft | 506 kts | 76° |
| 2026-05-08 05:01 | 78.97328 | -120.54602 | 35053 ft | 506 kts | 77° |
| 2026-05-08 05:01 | 78.99093 | -120.18938 | 35044 ft | 506 kts | 77° |
| 2026-05-08 05:02 | 79.01274 | -119.84126 | 35040 ft | 509 kts | 67° |
| 2026-05-08 05:02 | 79.04231 | -119.50374 | 35055 ft | 509 kts | 66° |
| 2026-05-08 05:03 | 79.07214 | -119.16559 | 35048 ft | 510 kts | 66° |
| 2026-05-08 05:03 | 79.10132 | -118.82457 | 35050 ft | 510 kts | 67° |
| 2026-05-08 05:04 | 79.12986 | -118.48096 | 35063 ft | 510 kts | 68° |
| 2026-05-08 05:04 | 79.15800 | -118.13478 | 35070 ft | 511 kts | 68° |
| 2026-05-08 05:05 | 79.18576 | -117.78679 | 35071 ft | 512 kts | 68° |
| 2026-05-08 05:05 | 79.21320 | -117.43644 | 35078 ft | 512 kts | 69° |
| 2026-05-08 05:06 | 79.24021 | -117.08485 | 35072 ft | 512 kts | 69° |
| 2026-05-08 05:06 | 79.26684 | -116.73135 | 35081 ft | 511 kts | 69° |
| 2026-05-08 05:07 | 79.29306 | -116.37619 | 35086 ft | 511 kts | 70° |
| 2026-05-08 05:07 | 79.31885 | -116.01969 | 35088 ft | 511 kts | 70° |
| 2026-05-08 05:08 | 79.34419 | -115.66210 | 35102 ft | 512 kts | 70° |
| 2026-05-08 05:08 | 79.36920 | -115.30170 | 35101 ft | 512 kts | 71° |
| 2026-05-08 05:09 | 79.39383 | -114.93923 | 35100 ft | 512 kts | 71° |
| 2026-05-08 05:09 | 79.41805 | -114.57489 | 35110 ft | 513 kts | 71° |
| 2026-05-08 05:10 | 79.45364 | -114.02466 | 35123 ft | 514 kts | 72° |
| 2026-05-08 05:11 | 79.47671 | -113.65784 | 35136 ft | 514 kts | 72° |
| 2026-05-08 05:11 | 79.49966 | -113.28448 | 35119 ft | 514 kts | 73° |
| 2026-05-08 05:12 | 79.52191 | -112.91392 | 35125 ft | 514 kts | 73° |
| 2026-05-08 05:12 | 79.54389 | -112.53898 | 35140 ft | 515 kts | 73° |
| 2026-05-08 05:13 | 79.56541 | -112.16273 | 35137 ft | 515 kts | 74° |
| 2026-05-08 05:13 | 79.58654 | -111.78430 | 35154 ft | 515 kts | 74° |
| 2026-05-08 05:14 | 79.60721 | -111.40448 | 35143 ft | 515 kts | 75° |
| 2026-05-08 05:14 | 79.62742 | -111.02330 | 35150 ft | 516 kts | 75° |
| 2026-05-08 05:15 | 79.64720 | -110.64040 | 35160 ft | 516 kts | 75° |
| 2026-05-08 05:15 | 79.66654 | -110.25577 | 35160 ft | 516 kts | 76° |
| 2026-05-08 05:16 | 79.68543 | -109.86948 | 35146 ft | 517 kts | 76° |
| 2026-05-08 05:16 | 79.70387 | -109.48172 | 35167 ft | 517 kts | 77° |
| 2026-05-08 05:17 | 79.72186 | -109.09242 | 35158 ft | 517 kts | 77° |
| 2026-05-08 05:17 | 79.73926 | -108.70443 | 35172 ft | 516 kts | 77° |
| 2026-05-08 05:18 | 79.75631 | -108.31252 | 35176 ft | 516 kts | 78° |
| 2026-05-08 05:18 | 79.77286 | -107.91992 | 35179 ft | 516 kts | 78° |
| 2026-05-08 05:19 | 79.78893 | -107.52656 | 35181 ft | 515 kts | 79° |
| 2026-05-08 05:19 | 79.80451 | -107.13218 | 35178 ft | 515 kts | 79° |
| 2026-05-08 05:20 | 79.81963 | -106.73626 | 35194 ft | 515 kts | 79° |
| 2026-05-08 05:20 | 79.83430 | -106.33872 | 35203 ft | 516 kts | 80° |
| 2026-05-08 05:21 | 79.84840 | -105.94235 | 35203 ft | 517 kts | 80° |
| 2026-05-08 05:21 | 79.86213 | -105.54199 | 35210 ft | 517 kts | 81° |
| 2026-05-08 05:22 | 79.87539 | -105.13969 | 35202 ft | 518 kts | 81° |
| 2026-05-08 05:22 | 79.88815 | -104.73688 | 35206 ft | 518 kts | 81° |
| 2026-05-08 05:23 | 79.90045 | -104.33230 | 35220 ft | 519 kts | 82° |
| 2026-05-08 05:23 | 79.91226 | -103.92630 | 35214 ft | 519 kts | 82° |
| 2026-05-08 05:24 | 79.92357 | -103.51974 | 35226 ft | 519 kts | 82° |
| 2026-05-08 05:24 | 79.93438 | -103.11223 | 35222 ft | 519 kts | 83° |
| 2026-05-08 05:25 | 79.94469 | -102.70408 | 35223 ft | 518 kts | 83° |
| 2026-05-08 05:25 | 79.95450 | -102.29471 | 35231 ft | 519 kts | 83° |
| 2026-05-08 05:26 | 79.96381 | -101.88491 | 35237 ft | 519 kts | 84° |
| 2026-05-08 05:26 | 79.97256 | -101.47674 | 35236 ft | 519 kts | 84° |
| 2026-05-08 05:27 | 79.98092 | -101.06256 | 35227 ft | 518 kts | 85° |
| 2026-05-08 05:27 | 79.98866 | -100.65376 | 35226 ft | 519 kts | 85° |
| 2026-05-08 05:28 | 79.99603 | -100.24119 | 35243 ft | 519 kts | 85° |
| 2026-05-08 05:28 | 80.00397 | -99.82803 | 35238 ft | 520 kts | 82° |
| 2026-05-08 05:29 | 80.01568 | -99.41655 | 35244 ft | 521 kts | 81° |
| 2026-05-08 05:29 | 80.02792 | -99.00474 | 35244 ft | 521 kts | 81° |
| 2026-05-08 05:30 | 80.03927 | -98.59154 | 35240 ft | 521 kts | 82° |
| 2026-05-08 05:30 | 80.04973 | -98.17726 | 35249 ft | 521 kts | 82° |
| 2026-05-08 05:31 | 80.05952 | -97.76399 | 35247 ft | 521 kts | 83° |
| 2026-05-08 05:31 | 80.06888 | -97.34699 | 35243 ft | 522 kts | 83° |
| 2026-05-08 05:32 | 80.07774 | -96.92997 | 35245 ft | 521 kts | 84° |
| 2026-05-08 05:32 | 80.08610 | -96.51230 | 35244 ft | 521 kts | 84° |
| 2026-05-08 05:33 | 80.09394 | -96.09354 | 35249 ft | 522 kts | 84° |
| 2026-05-08 05:33 | 80.10127 | -95.67344 | 35252 ft | 522 kts | 85° |
| 2026-05-08 05:34 | 80.10808 | -95.25305 | 35240 ft | 522 kts | 85° |
| 2026-05-08 05:34 | 80.11436 | -94.83215 | 35247 ft | 522 kts | 85° |
| 2026-05-08 05:35 | 80.12013 | -94.41027 | 35242 ft | 523 kts | 86° |
| 2026-05-08 05:35 | 80.12538 | -93.98772 | 35227 ft | 523 kts | 86° |
| 2026-05-08 05:36 | 80.13009 | -93.56420 | 35232 ft | 524 kts | 86° |
| 2026-05-08 05:36 | 80.13426 | -93.14295 | 35225 ft | 524 kts | 87° |
| 2026-05-08 05:37 | 80.13794 | -92.71827 | 35223 ft | 524 kts | 88° |
| 2026-05-08 05:37 | 80.14058 | -92.36511 | 35220 ft | 524 kts | 88° |
| 2026-05-08 05:38 | 80.14327 | -91.94076 | 35223 ft | 523 kts | 88° |
| 2026-05-08 05:38 | 80.14543 | -91.51623 | 35238 ft | 523 kts | 88° |
| 2026-05-08 05:39 | 80.14706 | -91.09135 | 35239 ft | 523 kts | 89° |
| 2026-05-08 05:39 | 80.14816 | -90.66647 | 35280 ft | 523 kts | 89° |
| 2026-05-08 05:40 | 80.14872 | -90.24114 | 35273 ft | 524 kts | 90° |
| 2026-05-08 05:40 | 80.14876 | -89.81532 | 35298 ft | 524 kts | 90° |
| 2026-05-08 05:41 | 80.14827 | -89.38987 | 35298 ft | 524 kts | 90° |
| 2026-05-08 05:41 | 80.14724 | -88.96391 | 35308 ft | 525 kts | 91° |
| 2026-05-08 05:42 | 80.14567 | -88.53768 | 35301 ft | 525 kts | 91° |
| 2026-05-08 05:42 | 80.14357 | -88.11160 | 35316 ft | 525 kts | 92° |
| 2026-05-08 05:43 | 80.14093 | -87.68541 | 35302 ft | 525 kts | 92° |
| 2026-05-08 05:43 | 80.13776 | -87.25975 | 35314 ft | 525 kts | 92° |
| 2026-05-08 05:44 | 80.13406 | -86.83431 | 35316 ft | 525 kts | 93° |
| 2026-05-08 05:44 | 80.12985 | -86.41225 | 35327 ft | 525 kts | 94° |
| 2026-05-08 05:45 | 80.12509 | -85.98776 | 35310 ft | 525 kts | 94° |
| 2026-05-08 05:45 | 80.11979 | -85.56354 | 35326 ft | 525 kts | 94° |
| 2026-05-08 05:46 | 80.11398 | -85.14031 | 35318 ft | 525 kts | 95° |
| 2026-05-08 05:46 | 80.10763 | -84.71722 | 35316 ft | 525 kts | 95° |
| 2026-05-08 05:47 | 80.10074 | -84.29409 | 35318 ft | 525 kts | 95° |
| 2026-05-08 05:47 | 80.09334 | -83.87229 | 35324 ft | 525 kts | 96° |
| 2026-05-08 05:48 | 80.08545 | -83.45322 | 35305 ft | 525 kts | 96° |
| 2026-05-08 05:48 | 80.07699 | -83.03229 | 35315 ft | 525 kts | 96° |
| 2026-05-08 05:49 | 80.06801 | -82.61226 | 35306 ft | 525 kts | 97° |
| 2026-05-08 05:49 | 80.05849 | -82.19231 | 35312 ft | 526 kts | 97° |
| 2026-05-08 05:50 | 80.04847 | -81.77370 | 35302 ft | 526 kts | 98° |
| 2026-05-08 05:50 | 80.03791 | -81.35554 | 35305 ft | 526 kts | 98° |
| 2026-05-08 05:51 | 80.02683 | -80.93745 | 35285 ft | 527 kts | 98° |
| 2026-05-08 05:51 | 80.01529 | -80.52051 | 35284 ft | 527 kts | 98° |
| 2026-05-08 05:52 | 80.00435 | -80.10339 | 35270 ft | 526 kts | 94° |
| 2026-05-08 05:52 | 80.00336 | -79.68330 | 35266 ft | 524 kts | 83° |
| 2026-05-08 05:53 | 80.00981 | -79.26580 | 35263 ft | 524 kts | 83° |
| 2026-05-08 05:53 | 80.01583 | -78.84991 | 35261 ft | 523 kts | 83° |
| 2026-05-08 05:54 | 80.02104 | -78.43168 | 35239 ft | 523 kts | 84° |
| 2026-05-08 05:54 | 80.02553 | -78.01402 | 35247 ft | 521 kts | 85° |
| 2026-05-08 05:55 | 80.02947 | -77.59663 | 35263 ft | 521 kts | 85° |
| 2026-05-08 05:55 | 80.03291 | -77.17893 | 35258 ft | 521 kts | 85° |
| 2026-05-08 05:56 | 80.03585 | -76.76073 | 35270 ft | 521 kts | 86° |
| 2026-05-08 05:56 | 80.03827 | -76.34296 | 35273 ft | 521 kts | 86° |
| 2026-05-08 05:57 | 80.04016 | -75.92741 | 35287 ft | 521 kts | 86° |
| 2026-05-08 05:57 | 80.04154 | -75.50880 | 35289 ft | 521 kts | 87° |
| 2026-05-08 05:58 | 80.04240 | -75.09024 | 35282 ft | 522 kts | 87° |
| 2026-05-08 05:58 | 80.04274 | -74.67096 | 35292 ft | 522 kts | 88° |
| 2026-05-08 05:59 | 80.04255 | -74.25207 | 35298 ft | 521 kts | 88° |
| 2026-05-08 05:59 | 80.04185 | -73.83327 | 35301 ft | 521 kts | 89° |
| 2026-05-08 06:00 | 80.04062 | -73.41458 | 35307 ft | 521 kts | 89° |
| 2026-05-08 06:00 | 80.03888 | -72.99592 | 35313 ft | 520 kts | 89° |
| 2026-05-08 06:01 | 80.03662 | -72.57813 | 35316 ft | 521 kts | 90° |
| 2026-05-08 06:01 | 80.03387 | -72.16296 | 35330 ft | 521 kts | 90° |
| 2026-05-08 06:02 | 80.03055 | -71.74492 | 35322 ft | 521 kts | 90° |
| 2026-05-08 06:02 | 80.02674 | -71.32727 | 35340 ft | 521 kts | 91° |
| 2026-05-08 06:03 | 80.02240 | -70.91045 | 35324 ft | 520 kts | 91° |
| 2026-05-08 06:03 | 80.01755 | -70.49425 | 35311 ft | 519 kts | 92° |
| 2026-05-08 06:04 | 80.01222 | -70.07975 | 35316 ft | 518 kts | 92° |
| 2026-05-08 06:04 | 80.00644 | -69.66587 | 35319 ft | 517 kts | 92° |
| 2026-05-08 06:05 | 80.00097 | -69.25635 | 35306 ft | 516 kts | 89° |
| 2026-05-08 06:05 | 80.00418 | -68.84611 | 35316 ft | 512 kts | 83° |
| 2026-05-08 06:06 | 80.00965 | -68.43682 | 35301 ft | 513 kts | 83° |
| 2026-05-08 06:06 | 80.01440 | -68.02633 | 35302 ft | 514 kts | 84° |
| 2026-05-08 06:07 | 80.01840 | -67.61466 | 35307 ft | 515 kts | 84° |
| 2026-05-08 06:07 | 80.02180 | -67.20207 | 35296 ft | 516 kts | 85° |
| 2026-05-08 06:08 | 80.02470 | -66.78851 | 35295 ft | 516 kts | 85° |
| 2026-05-08 06:08 | 80.02712 | -66.37536 | 35290 ft | 515 kts | 85° |
| 2026-05-08 06:09 | 80.02903 | -65.96183 | 35292 ft | 515 kts | 86° |
| 2026-05-08 06:09 | 80.03042 | -65.54848 | 35294 ft | 515 kts | 86° |
| 2026-05-08 06:10 | 80.03132 | -65.13734 | 35308 ft | 515 kts | 87° |
| 2026-05-08 06:10 | 80.03171 | -64.72346 | 35301 ft | 515 kts | 87° |
| 2026-05-08 06:11 | 80.03158 | -64.31038 | 35298 ft | 515 kts | 88° |
| 2026-05-08 06:11 | 80.03095 | -63.89726 | 35295 ft | 515 kts | 88° |
| 2026-05-08 06:12 | 80.02981 | -63.48419 | 35313 ft | 514 kts | 89° |
| 2026-05-08 06:12 | 80.02817 | -63.07137 | 35306 ft | 515 kts | 89° |
| 2026-05-08 06:13 | 80.02602 | -62.65890 | 35317 ft | 514 kts | 89° |
| 2026-05-08 06:13 | 80.02336 | -62.24653 | 35304 ft | 514 kts | 90° |
| 2026-05-08 06:14 | 80.02020 | -61.83392 | 35300 ft | 514 kts | 90° |
| 2026-05-08 06:14 | 80.01657 | -61.42499 | 35310 ft | 514 kts | 91° |
| 2026-05-08 06:15 | 80.01241 | -61.01411 | 35318 ft | 514 kts | 91° |
| 2026-05-08 06:15 | 80.00778 | -60.60013 | 35306 ft | 515 kts | 91° |
| 2026-05-08 06:16 | 80.00170 | -60.19184 | 35301 ft | 516 kts | 97° |
| 2026-05-08 06:16 | 79.98362 | -59.79213 | 35321 ft | 517 kts | 109° |
| 2026-05-08 06:17 | 79.93931 | -59.22858 | 35314 ft | 516 kts | 114° |
| 2026-05-08 06:17 | 79.90894 | -58.85746 | 35310 ft | 516 kts | 114° |
| 2026-05-08 06:18 | 79.87851 | -58.48766 | 35313 ft | 515 kts | 114° |
| 2026-05-08 06:18 | 79.84780 | -58.12000 | 35331 ft | 515 kts | 114° |
| 2026-05-08 06:19 | 79.81671 | -57.75500 | 35332 ft | 515 kts | 115° |
| 2026-05-08 06:19 | 79.78517 | -57.39204 | 35343 ft | 515 kts | 115° |
| 2026-05-08 06:20 | 79.75321 | -57.03109 | 35344 ft | 515 kts | 115° |
| 2026-05-08 06:20 | 79.72084 | -56.67232 | 35349 ft | 516 kts | 116° |
| 2026-05-08 06:21 | 79.68808 | -56.31571 | 35343 ft | 516 kts | 116° |
| 2026-05-08 06:21 | 79.65513 | -55.96356 | 35348 ft | 516 kts | 116° |
| 2026-05-08 06:22 | 79.62159 | -55.61139 | 35344 ft | 516 kts | 117° |
| 2026-05-08 06:22 | 79.58765 | -55.26128 | 35344 ft | 516 kts | 117° |
| 2026-05-08 06:23 | 79.55336 | -54.91368 | 35359 ft | 516 kts | 117° |
| 2026-05-08 06:23 | 79.51869 | -54.56831 | 35342 ft | 516 kts | 118° |
| 2026-05-08 06:24 | 79.48368 | -54.22547 | 35339 ft | 515 kts | 118° |
| 2026-05-08 06:24 | 79.44831 | -53.88497 | 35334 ft | 515 kts | 118° |
| 2026-05-08 06:25 | 79.41865 | -53.60374 | 35332 ft | 515 kts | 119° |
| 2026-05-08 06:25 | 79.38262 | -53.26735 | 35332 ft | 514 kts | 119° |
| 2026-05-08 06:26 | 79.34632 | -52.93400 | 35334 ft | 514 kts | 120° |
| 2026-05-08 06:26 | 79.30962 | -52.60249 | 35330 ft | 514 kts | 120° |
| 2026-05-08 06:27 | 79.27257 | -52.27316 | 35333 ft | 514 kts | 120° |
| 2026-05-08 06:27 | 79.23522 | -51.94650 | 35334 ft | 514 kts | 121° |
| 2026-05-08 06:28 | 79.19778 | -51.62409 | 35340 ft | 514 kts | 121° |
| 2026-05-08 06:28 | 79.15975 | -51.30179 | 35339 ft | 514 kts | 121° |
| 2026-05-08 06:29 | 79.12141 | -50.98185 | 35345 ft | 514 kts | 121° |
| 2026-05-08 06:29 | 79.08275 | -50.66424 | 35341 ft | 514 kts | 122° |
| 2026-05-08 06:30 | 79.04377 | -50.34854 | 35342 ft | 514 kts | 122° |
| 2026-05-08 06:30 | 79.00446 | -50.03517 | 35342 ft | 514 kts | 123° |
| 2026-05-08 06:31 | 78.96044 | -49.74088 | 35346 ft | 514 kts | 129° |
| 2026-05-08 06:31 | 78.91473 | -49.45452 | 35342 ft | 514 kts | 129° |
| 2026-05-08 06:32 | 78.86898 | -49.16918 | 35336 ft | 514 kts | 129° |
| 2026-05-08 06:32 | 78.82316 | -48.88564 | 35337 ft | 514 kts | 129° |
| 2026-05-08 06:33 | 78.77711 | -48.60436 | 35336 ft | 514 kts | 129° |
| 2026-05-08 06:33 | 78.73078 | -48.32535 | 35337 ft | 514 kts | 130° |
| 2026-05-08 06:34 | 78.68420 | -48.04874 | 35338 ft | 514 kts | 130° |
| 2026-05-08 06:34 | 78.63732 | -47.77414 | 35333 ft | 514 kts | 130° |
| 2026-05-08 06:35 | 78.59057 | -47.50404 | 35334 ft | 514 kts | 131° |
| 2026-05-08 06:35 | 78.54325 | -47.23420 | 35334 ft | 513 kts | 131° |
| 2026-05-08 06:36 | 78.49569 | -46.96659 | 35334 ft | 513 kts | 131° |
| 2026-05-08 06:36 | 78.44793 | -46.70142 | 35334 ft | 513 kts | 131° |
| 2026-05-08 06:37 | 78.39991 | -46.43830 | 35331 ft | 513 kts | 132° |
| 2026-05-08 06:37 | 78.35163 | -46.17715 | 35332 ft | 513 kts | 132° |
| 2026-05-08 06:38 | 78.30312 | -45.91818 | 35332 ft | 514 kts | 132° |
| 2026-05-08 06:38 | 78.25436 | -45.66125 | 35331 ft | 514 kts | 133° |
| 2026-05-08 06:39 | 78.20540 | -45.40655 | 35331 ft | 514 kts | 133° |
| 2026-05-08 06:39 | 78.15620 | -45.15383 | 35329 ft | 514 kts | 133° |
| 2026-05-08 06:40 | 78.10674 | -44.90296 | 35328 ft | 514 kts | 133° |
| 2026-05-08 06:40 | 78.05713 | -44.65454 | 35323 ft | 513 kts | 134° |
| 2026-05-08 06:41 | 78.00731 | -44.40813 | 35325 ft | 513 kts | 134° |
| 2026-05-08 06:41 | 77.95724 | -44.16360 | 35324 ft | 513 kts | 134° |
| 2026-05-08 06:42 | 77.90701 | -43.92131 | 35328 ft | 513 kts | 134° |
| 2026-05-08 06:42 | 77.85655 | -43.68087 | 35319 ft | 513 kts | 135° |
| 2026-05-08 06:43 | 77.80592 | -43.44259 | 35321 ft | 513 kts | 135° |
| 2026-05-08 06:43 | 77.75505 | -43.20606 | 35320 ft | 513 kts | 135° |
| 2026-05-08 06:44 | 77.70438 | -42.97329 | 35320 ft | 513 kts | 135° |
| 2026-05-08 06:44 | 77.65315 | -42.74080 | 35325 ft | 513 kts | 136° |
| 2026-05-08 06:45 | 77.60173 | -42.51018 | 35327 ft | 513 kts | 136° |
| 2026-05-08 06:45 | 77.55009 | -42.28135 | 35329 ft | 513 kts | 136° |
| 2026-05-08 06:46 | 77.49829 | -42.05449 | 35329 ft | 513 kts | 136° |
| 2026-05-08 06:46 | 77.44622 | -41.82916 | 35332 ft | 513 kts | 136° |
| 2026-05-08 06:47 | 77.39398 | -41.60571 | 35336 ft | 513 kts | 137° |
| 2026-05-08 06:47 | 77.34156 | -41.38408 | 35331 ft | 513 kts | 137° |
| 2026-05-08 06:48 | 77.28897 | -41.16428 | 35331 ft | 513 kts | 137° |
| 2026-05-08 06:48 | 77.23619 | -40.94626 | 35332 ft | 513 kts | 137° |
| 2026-05-08 06:49 | 77.18326 | -40.73008 | 35334 ft | 513 kts | 137° |
| 2026-05-08 06:49 | 77.13017 | -40.51572 | 35334 ft | 513 kts | 138° |
| 2026-05-08 06:50 | 77.07690 | -40.30303 | 35334 ft | 513 kts | 138° |
| 2026-05-08 06:50 | 77.02350 | -40.09196 | 35334 ft | 513 kts | 138° |
| 2026-05-08 06:51 | 76.97127 | -39.87606 | 35339 ft | 513 kts | 135° |
| 2026-05-08 06:51 | 76.92063 | -39.65368 | 35335 ft | 513 kts | 135° |
| 2026-05-08 06:52 | 76.86967 | -39.43371 | 35335 ft | 513 kts | 135° |
| 2026-05-08 06:52 | 76.81841 | -39.21546 | 35337 ft | 513 kts | 136° |
| 2026-05-08 06:53 | 76.76727 | -39.00024 | 35337 ft | 513 kts | 136° |
| 2026-05-08 06:53 | 76.71563 | -38.78521 | 35337 ft | 514 kts | 136° |
| 2026-05-08 06:54 | 76.66382 | -38.57178 | 35337 ft | 514 kts | 136° |
| 2026-05-08 06:54 | 76.61181 | -38.35992 | 35337 ft | 514 kts | 136° |
| 2026-05-08 06:55 | 76.55962 | -38.14961 | 35337 ft | 514 kts | 137° |
| 2026-05-08 06:55 | 76.50723 | -37.94086 | 35337 ft | 514 kts | 137° |
| 2026-05-08 06:56 | 76.45468 | -37.73369 | 35337 ft | 514 kts | 137° |
| 2026-05-08 06:56 | 76.40197 | -37.52818 | 35337 ft | 514 kts | 137° |
| 2026-05-08 06:57 | 76.34910 | -37.32420 | 35337 ft | 514 kts | 137° |
| 2026-05-08 06:57 | 76.29603 | -37.12166 | 35336 ft | 514 kts | 138° |
| 2026-05-08 06:58 | 76.24280 | -36.92068 | 35337 ft | 514 kts | 138° |
| 2026-05-08 06:58 | 76.18941 | -36.72122 | 35337 ft | 514 kts | 138° |
| 2026-05-08 06:59 | 76.13582 | -36.52313 | 35337 ft | 514 kts | 139° |
| 2026-05-08 06:59 | 76.08211 | -36.32664 | 35337 ft | 514 kts | 139° |
| 2026-05-08 07:00 | 76.02858 | -36.13289 | 35339 ft | 514 kts | 139° |
| 2026-05-08 07:00 | 75.97455 | -35.93932 | 35360 ft | 514 kts | 139° |
| 2026-05-08 07:01 | 75.92045 | -35.74751 | 35344 ft | 513 kts | 139° |
| 2026-05-08 07:01 | 75.86631 | -35.55754 | 35345 ft | 511 kts | 140° |
| 2026-05-08 07:02 | 75.81215 | -35.36941 | 35346 ft | 510 kts | 140° |
| 2026-05-08 07:02 | 75.75800 | -35.18322 | 35347 ft | 510 kts | 140° |
| 2026-05-08 07:03 | 75.70368 | -34.99835 | 35347 ft | 509 kts | 140° |
| 2026-05-08 07:03 | 75.64929 | -34.81507 | 35346 ft | 509 kts | 140° |
| 2026-05-08 07:04 | 75.59474 | -34.63307 | 35345 ft | 510 kts | 140° |
| 2026-05-08 07:04 | 75.53995 | -34.45210 | 35347 ft | 510 kts | 141° |
| 2026-05-08 07:05 | 75.48500 | -34.27239 | 35330 ft | 511 kts | 141° |
| 2026-05-08 07:05 | 75.42982 | -34.09370 | 35340 ft | 512 kts | 141° |
| 2026-05-08 07:06 | 75.37445 | -33.91616 | 35336 ft | 512 kts | 141° |
| 2026-05-08 07:06 | 75.31886 | -33.73964 | 35336 ft | 513 kts | 141° |
| 2026-05-08 07:07 | 75.26690 | -33.57621 | 35324 ft | 513 kts | 142° |
| 2026-05-08 07:07 | 75.21102 | -33.40210 | 35324 ft | 513 kts | 142° |